<?xml version="1.0" encoding="UTF-8" standalone="no" ?>
<gpx xmlns="http://www.topografix.com/GPX/1/1" xmlns:xsi="http://www.w3.org/2001/XMLSchema-instance" xsi:schemaLocation="http://www.topografix.com/GPX/1/1 http://www.topografix.com/GPX/1/1/gpx.xsd" version="1.1" creator="VisuGPX - https://www.visugpx.com">
  <metadata>
    <name>St Marcel</name>
    <desc><![CDATA[Barraux Chapareillan Bellecombe St Marcel]]></desc>
  </metadata>
  <trk>
    <name><![CDATA[st marcel]]></name>
    <desc><![CDATA[<h1>OruxMaps</h1><br /><hr align="center" width="480" style="height: 2px; width: 517px"/><h2>Nom: st marcel</h2><br /><p>Temps de départ: 05/25/2014 08:32</p><p>Temps d'arrivée: 05/25/2014 10:13</p><p>Distance: 15,4 km (01:41)</p><p>Temps déplacement: 01:15</p><p>Vitesse moyenne: 9,1 km/h</p><p>Vitesse moyenne: 12,2 km/h</p><p>Vitess Max.: 66,3 km/h</p><p>Altitude minimale: 277 m</p><p>Altitude maximale: 806 m</p><p>Vitesse d'élévation: 820,9 m/h</p><p>Vitesse de descente: -1595,1 m/h</p><p>Gain Altitude: 851 m</p><p>Perte Altitude: -862 m</p><p>Temps d'élévation: 01:02</p><p>Temps de descente: 00:32</p><hr align="center" width="480" style="height: 2px; width: 517px"/>]]></desc>
    <trkseg>
      <trkpt lat="45.42919" lon="5.98394">
        <ele>330</ele>
        <time>2014-05-25T06:32:07Z</time>
      </trkpt>
      <trkpt lat="45.42926" lon="5.98366">
        <ele>330</ele>
        <time>2014-05-25T06:32:29Z</time>
      </trkpt>
      <trkpt lat="45.42939" lon="5.9834">
        <ele>330</ele>
        <time>2014-05-25T06:32:34Z</time>
      </trkpt>
      <trkpt lat="45.42951" lon="5.98312">
        <ele>330</ele>
        <time>2014-05-25T06:32:38Z</time>
      </trkpt>
      <trkpt lat="45.42968" lon="5.98293">
        <ele>330</ele>
        <time>2014-05-25T06:32:42Z</time>
      </trkpt>
      <trkpt lat="45.42978" lon="5.98271">
        <ele>330</ele>
        <time>2014-05-25T06:32:46Z</time>
      </trkpt>
      <trkpt lat="45.42997" lon="5.98254">
        <ele>329</ele>
        <time>2014-05-25T06:32:51Z</time>
      </trkpt>
      <trkpt lat="45.43012" lon="5.98235">
        <ele>329</ele>
        <time>2014-05-25T06:32:56Z</time>
      </trkpt>
      <trkpt lat="45.43027" lon="5.98213">
        <ele>330</ele>
        <time>2014-05-25T06:33:01Z</time>
      </trkpt>
      <trkpt lat="45.4304" lon="5.98189">
        <ele>330</ele>
        <time>2014-05-25T06:33:05Z</time>
      </trkpt>
      <trkpt lat="45.43053" lon="5.98167">
        <ele>331</ele>
        <time>2014-05-25T06:33:10Z</time>
      </trkpt>
      <trkpt lat="45.43071" lon="5.98158">
        <ele>331</ele>
        <time>2014-05-25T06:33:15Z</time>
      </trkpt>
      <trkpt lat="45.43093" lon="5.98148">
        <ele>332</ele>
        <time>2014-05-25T06:33:20Z</time>
      </trkpt>
      <trkpt lat="45.43116" lon="5.98151">
        <ele>332</ele>
        <time>2014-05-25T06:33:24Z</time>
      </trkpt>
      <trkpt lat="45.43138" lon="5.98151">
        <ele>332</ele>
        <time>2014-05-25T06:33:29Z</time>
      </trkpt>
      <trkpt lat="45.43151" lon="5.98129">
        <ele>332</ele>
        <time>2014-05-25T06:33:34Z</time>
      </trkpt>
      <trkpt lat="45.43157" lon="5.98101">
        <ele>333</ele>
        <time>2014-05-25T06:33:40Z</time>
      </trkpt>
      <trkpt lat="45.43163" lon="5.98072">
        <ele>335</ele>
        <time>2014-05-25T06:33:47Z</time>
      </trkpt>
      <trkpt lat="45.43167" lon="5.98045">
        <ele>337</ele>
        <time>2014-05-25T06:33:54Z</time>
      </trkpt>
      <trkpt lat="45.43175" lon="5.9802">
        <ele>338</ele>
        <time>2014-05-25T06:34:01Z</time>
      </trkpt>
      <trkpt lat="45.43183" lon="5.97995">
        <ele>340</ele>
        <time>2014-05-25T06:34:07Z</time>
      </trkpt>
      <trkpt lat="45.43191" lon="5.97968">
        <ele>342</ele>
        <time>2014-05-25T06:34:14Z</time>
      </trkpt>
      <trkpt lat="45.432" lon="5.97942">
        <ele>342</ele>
        <time>2014-05-25T06:34:20Z</time>
      </trkpt>
      <trkpt lat="45.43209" lon="5.97919">
        <ele>343</ele>
        <time>2014-05-25T06:34:27Z</time>
      </trkpt>
      <trkpt lat="45.43219" lon="5.97895">
        <ele>346</ele>
        <time>2014-05-25T06:34:33Z</time>
      </trkpt>
      <trkpt lat="45.43231" lon="5.97875">
        <ele>347</ele>
        <time>2014-05-25T06:34:40Z</time>
      </trkpt>
      <trkpt lat="45.43243" lon="5.97854">
        <ele>348</ele>
        <time>2014-05-25T06:34:48Z</time>
      </trkpt>
      <trkpt lat="45.43257" lon="5.97833">
        <ele>352</ele>
        <time>2014-05-25T06:34:56Z</time>
      </trkpt>
      <trkpt lat="45.4327" lon="5.97812">
        <ele>355</ele>
        <time>2014-05-25T06:35:03Z</time>
      </trkpt>
      <trkpt lat="45.43282" lon="5.97788">
        <ele>356</ele>
        <time>2014-05-25T06:35:10Z</time>
      </trkpt>
      <trkpt lat="45.43294" lon="5.97766">
        <ele>357</ele>
        <time>2014-05-25T06:35:17Z</time>
      </trkpt>
      <trkpt lat="45.43309" lon="5.97749">
        <ele>362</ele>
        <time>2014-05-25T06:35:25Z</time>
      </trkpt>
      <trkpt lat="45.43326" lon="5.9774">
        <ele>362</ele>
        <time>2014-05-25T06:35:34Z</time>
      </trkpt>
      <trkpt lat="45.43344" lon="5.97747">
        <ele>363</ele>
        <time>2014-05-25T06:35:42Z</time>
      </trkpt>
      <trkpt lat="45.43362" lon="5.97742">
        <ele>364</ele>
        <time>2014-05-25T06:35:58Z</time>
      </trkpt>
      <trkpt lat="45.43377" lon="5.97759">
        <ele>361</ele>
        <time>2014-05-25T06:36:27Z</time>
      </trkpt>
      <trkpt lat="45.43395" lon="5.97767">
        <ele>362</ele>
        <time>2014-05-25T06:36:46Z</time>
      </trkpt>
      <trkpt lat="45.43409" lon="5.97786">
        <ele>361</ele>
        <time>2014-05-25T06:36:58Z</time>
      </trkpt>
      <trkpt lat="45.43424" lon="5.97804">
        <ele>362</ele>
        <time>2014-05-25T06:37:03Z</time>
      </trkpt>
      <trkpt lat="45.43443" lon="5.97814">
        <ele>361</ele>
        <time>2014-05-25T06:37:07Z</time>
      </trkpt>
      <trkpt lat="45.43461" lon="5.9782">
        <ele>361</ele>
        <time>2014-05-25T06:37:10Z</time>
      </trkpt>
      <trkpt lat="45.43481" lon="5.97834">
        <ele>358</ele>
        <time>2014-05-25T06:37:15Z</time>
      </trkpt>
      <trkpt lat="45.43501" lon="5.97832">
        <ele>358</ele>
        <time>2014-05-25T06:37:19Z</time>
      </trkpt>
      <trkpt lat="45.4352" lon="5.97831">
        <ele>359</ele>
        <time>2014-05-25T06:37:22Z</time>
      </trkpt>
      <trkpt lat="45.43538" lon="5.97836">
        <ele>357</ele>
        <time>2014-05-25T06:37:25Z</time>
      </trkpt>
      <trkpt lat="45.4356" lon="5.97835">
        <ele>357</ele>
        <time>2014-05-25T06:37:29Z</time>
      </trkpt>
      <trkpt lat="45.43584" lon="5.97843">
        <ele>359</ele>
        <time>2014-05-25T06:37:34Z</time>
      </trkpt>
      <trkpt lat="45.43603" lon="5.97844">
        <ele>358</ele>
        <time>2014-05-25T06:37:37Z</time>
      </trkpt>
      <trkpt lat="45.43625" lon="5.97845">
        <ele>358</ele>
        <time>2014-05-25T06:37:41Z</time>
      </trkpt>
      <trkpt lat="45.43648" lon="5.97852">
        <ele>359</ele>
        <time>2014-05-25T06:37:45Z</time>
      </trkpt>
      <trkpt lat="45.43666" lon="5.97859">
        <ele>359</ele>
        <time>2014-05-25T06:37:49Z</time>
      </trkpt>
      <trkpt lat="45.43687" lon="5.97865">
        <ele>361</ele>
        <time>2014-05-25T06:37:54Z</time>
      </trkpt>
      <trkpt lat="45.43704" lon="5.97875">
        <ele>361</ele>
        <time>2014-05-25T06:37:58Z</time>
      </trkpt>
      <trkpt lat="45.43722" lon="5.97885">
        <ele>361</ele>
        <time>2014-05-25T06:38:03Z</time>
      </trkpt>
      <trkpt lat="45.43737" lon="5.97899">
        <ele>362</ele>
        <time>2014-05-25T06:38:07Z</time>
      </trkpt>
      <trkpt lat="45.43758" lon="5.97909">
        <ele>363</ele>
        <time>2014-05-25T06:38:11Z</time>
      </trkpt>
      <trkpt lat="45.43778" lon="5.97921">
        <ele>362</ele>
        <time>2014-05-25T06:38:17Z</time>
      </trkpt>
      <trkpt lat="45.43798" lon="5.97932">
        <ele>363</ele>
        <time>2014-05-25T06:38:23Z</time>
      </trkpt>
      <trkpt lat="45.43818" lon="5.9794">
        <ele>363</ele>
        <time>2014-05-25T06:38:28Z</time>
      </trkpt>
      <trkpt lat="45.43837" lon="5.97952">
        <ele>366</ele>
        <time>2014-05-25T06:38:33Z</time>
      </trkpt>
      <trkpt lat="45.43857" lon="5.97963">
        <ele>366</ele>
        <time>2014-05-25T06:38:38Z</time>
      </trkpt>
      <trkpt lat="45.43877" lon="5.97973">
        <ele>366</ele>
        <time>2014-05-25T06:38:43Z</time>
      </trkpt>
      <trkpt lat="45.43898" lon="5.97984">
        <ele>367</ele>
        <time>2014-05-25T06:38:48Z</time>
      </trkpt>
      <trkpt lat="45.43919" lon="5.97995">
        <ele>367</ele>
        <time>2014-05-25T06:38:52Z</time>
      </trkpt>
      <trkpt lat="45.4394" lon="5.98003">
        <ele>364</ele>
        <time>2014-05-25T06:38:56Z</time>
      </trkpt>
      <trkpt lat="45.43962" lon="5.98011">
        <ele>363</ele>
        <time>2014-05-25T06:39:00Z</time>
      </trkpt>
      <trkpt lat="45.43985" lon="5.98016">
        <ele>363</ele>
        <time>2014-05-25T06:39:04Z</time>
      </trkpt>
      <trkpt lat="45.44003" lon="5.98019">
        <ele>362</ele>
        <time>2014-05-25T06:39:07Z</time>
      </trkpt>
      <trkpt lat="45.44026" lon="5.98028">
        <ele>361</ele>
        <time>2014-05-25T06:39:11Z</time>
      </trkpt>
      <trkpt lat="45.44047" lon="5.98034">
        <ele>361</ele>
        <time>2014-05-25T06:39:14Z</time>
      </trkpt>
      <trkpt lat="45.4407" lon="5.98036">
        <ele>361</ele>
        <time>2014-05-25T06:39:17Z</time>
      </trkpt>
      <trkpt lat="45.44091" lon="5.98038">
        <ele>360</ele>
        <time>2014-05-25T06:39:20Z</time>
      </trkpt>
      <trkpt lat="45.44109" lon="5.98035">
        <ele>360</ele>
        <time>2014-05-25T06:39:23Z</time>
      </trkpt>
      <trkpt lat="45.44133" lon="5.98027">
        <ele>360</ele>
        <time>2014-05-25T06:39:27Z</time>
      </trkpt>
      <trkpt lat="45.44152" lon="5.98023">
        <ele>360</ele>
        <time>2014-05-25T06:39:30Z</time>
      </trkpt>
      <trkpt lat="45.44171" lon="5.9802">
        <ele>360</ele>
        <time>2014-05-25T06:39:33Z</time>
      </trkpt>
      <trkpt lat="45.44193" lon="5.98021">
        <ele>360</ele>
        <time>2014-05-25T06:39:36Z</time>
      </trkpt>
      <trkpt lat="45.44215" lon="5.98024">
        <ele>360</ele>
        <time>2014-05-25T06:39:39Z</time>
      </trkpt>
      <trkpt lat="45.44234" lon="5.98029">
        <ele>359</ele>
        <time>2014-05-25T06:39:42Z</time>
      </trkpt>
      <trkpt lat="45.44254" lon="5.98036">
        <ele>360</ele>
        <time>2014-05-25T06:39:45Z</time>
      </trkpt>
      <trkpt lat="45.44272" lon="5.98044">
        <ele>360</ele>
        <time>2014-05-25T06:39:48Z</time>
      </trkpt>
      <trkpt lat="45.44293" lon="5.98053">
        <ele>360</ele>
        <time>2014-05-25T06:39:52Z</time>
      </trkpt>
      <trkpt lat="45.44314" lon="5.98062">
        <ele>360</ele>
        <time>2014-05-25T06:39:56Z</time>
      </trkpt>
      <trkpt lat="45.44332" lon="5.98073">
        <ele>360</ele>
        <time>2014-05-25T06:40:00Z</time>
      </trkpt>
      <trkpt lat="45.44349" lon="5.98083">
        <ele>361</ele>
        <time>2014-05-25T06:40:05Z</time>
      </trkpt>
      <trkpt lat="45.44367" lon="5.98102">
        <ele>362</ele>
        <time>2014-05-25T06:40:10Z</time>
      </trkpt>
      <trkpt lat="45.44385" lon="5.98118">
        <ele>362</ele>
        <time>2014-05-25T06:40:15Z</time>
      </trkpt>
      <trkpt lat="45.44404" lon="5.98135">
        <ele>362</ele>
        <time>2014-05-25T06:40:20Z</time>
      </trkpt>
      <trkpt lat="45.44422" lon="5.98153">
        <ele>365</ele>
        <time>2014-05-25T06:40:25Z</time>
      </trkpt>
      <trkpt lat="45.44437" lon="5.98168">
        <ele>362</ele>
        <time>2014-05-25T06:40:29Z</time>
      </trkpt>
      <trkpt lat="45.44452" lon="5.98183">
        <ele>363</ele>
        <time>2014-05-25T06:40:33Z</time>
      </trkpt>
      <trkpt lat="45.44469" lon="5.982">
        <ele>363</ele>
        <time>2014-05-25T06:40:37Z</time>
      </trkpt>
      <trkpt lat="45.44486" lon="5.98212">
        <ele>363</ele>
        <time>2014-05-25T06:40:41Z</time>
      </trkpt>
      <trkpt lat="45.44508" lon="5.98216">
        <ele>366</ele>
        <time>2014-05-25T06:40:45Z</time>
      </trkpt>
      <trkpt lat="45.44527" lon="5.98224">
        <ele>366</ele>
        <time>2014-05-25T06:40:49Z</time>
      </trkpt>
      <trkpt lat="45.44544" lon="5.98243">
        <ele>365</ele>
        <time>2014-05-25T06:40:54Z</time>
      </trkpt>
      <trkpt lat="45.4456" lon="5.98265">
        <ele>361</ele>
        <time>2014-05-25T06:40:58Z</time>
      </trkpt>
      <trkpt lat="45.44576" lon="5.98281">
        <ele>361</ele>
        <time>2014-05-25T06:41:01Z</time>
      </trkpt>
      <trkpt lat="45.44595" lon="5.98295">
        <ele>362</ele>
        <time>2014-05-25T06:41:04Z</time>
      </trkpt>
      <trkpt lat="45.44616" lon="5.98308">
        <ele>361</ele>
        <time>2014-05-25T06:41:07Z</time>
      </trkpt>
      <trkpt lat="45.44634" lon="5.9832">
        <ele>361</ele>
        <time>2014-05-25T06:41:10Z</time>
      </trkpt>
      <trkpt lat="45.44654" lon="5.98334">
        <ele>358</ele>
        <time>2014-05-25T06:41:14Z</time>
      </trkpt>
      <trkpt lat="45.44672" lon="5.98348">
        <ele>360</ele>
        <time>2014-05-25T06:41:18Z</time>
      </trkpt>
      <trkpt lat="45.44691" lon="5.9836">
        <ele>361</ele>
        <time>2014-05-25T06:41:22Z</time>
      </trkpt>
      <trkpt lat="45.44709" lon="5.98369">
        <ele>361</ele>
        <time>2014-05-25T06:41:26Z</time>
      </trkpt>
      <trkpt lat="45.4473" lon="5.98376">
        <ele>362</ele>
        <time>2014-05-25T06:41:31Z</time>
      </trkpt>
      <trkpt lat="45.44749" lon="5.9838">
        <ele>362</ele>
        <time>2014-05-25T06:41:37Z</time>
      </trkpt>
      <trkpt lat="45.44768" lon="5.98383">
        <ele>368</ele>
        <time>2014-05-25T06:41:43Z</time>
      </trkpt>
      <trkpt lat="45.44788" lon="5.98382">
        <ele>370</ele>
        <time>2014-05-25T06:41:50Z</time>
      </trkpt>
      <trkpt lat="45.44806" lon="5.98374">
        <ele>371</ele>
        <time>2014-05-25T06:41:58Z</time>
      </trkpt>
      <trkpt lat="45.44825" lon="5.98372">
        <ele>373</ele>
        <time>2014-05-25T06:42:08Z</time>
      </trkpt>
      <trkpt lat="45.44843" lon="5.98376">
        <ele>381</ele>
        <time>2014-05-25T06:42:14Z</time>
      </trkpt>
      <trkpt lat="45.44863" lon="5.98389">
        <ele>382</ele>
        <time>2014-05-25T06:42:19Z</time>
      </trkpt>
      <trkpt lat="45.44882" lon="5.984">
        <ele>383</ele>
        <time>2014-05-25T06:42:25Z</time>
      </trkpt>
      <trkpt lat="45.449" lon="5.98412">
        <ele>384</ele>
        <time>2014-05-25T06:42:32Z</time>
      </trkpt>
      <trkpt lat="45.44918" lon="5.98427">
        <ele>385</ele>
        <time>2014-05-25T06:42:41Z</time>
      </trkpt>
      <trkpt lat="45.44937" lon="5.98426">
        <ele>386</ele>
        <time>2014-05-25T06:42:54Z</time>
      </trkpt>
      <trkpt lat="45.44956" lon="5.98418">
        <ele>386</ele>
        <time>2014-05-25T06:43:02Z</time>
      </trkpt>
      <trkpt lat="45.44979" lon="5.98423">
        <ele>387</ele>
        <time>2014-05-25T06:43:14Z</time>
      </trkpt>
      <trkpt lat="45.44999" lon="5.9843">
        <ele>388</ele>
        <time>2014-05-25T06:43:22Z</time>
      </trkpt>
      <trkpt lat="45.45022" lon="5.98429">
        <ele>391</ele>
        <time>2014-05-25T06:43:32Z</time>
      </trkpt>
      <trkpt lat="45.45041" lon="5.98425">
        <ele>392</ele>
        <time>2014-05-25T06:43:39Z</time>
      </trkpt>
      <trkpt lat="45.45063" lon="5.98427">
        <ele>394</ele>
        <time>2014-05-25T06:43:43Z</time>
      </trkpt>
      <trkpt lat="45.45082" lon="5.98434">
        <ele>395</ele>
        <time>2014-05-25T06:43:48Z</time>
      </trkpt>
      <trkpt lat="45.45101" lon="5.98443">
        <ele>399</ele>
        <time>2014-05-25T06:43:53Z</time>
      </trkpt>
      <trkpt lat="45.45118" lon="5.98453">
        <ele>400</ele>
        <time>2014-05-25T06:44:01Z</time>
      </trkpt>
      <trkpt lat="45.45137" lon="5.98462">
        <ele>401</ele>
        <time>2014-05-25T06:44:12Z</time>
      </trkpt>
      <trkpt lat="45.45157" lon="5.98471">
        <ele>402</ele>
        <time>2014-05-25T06:44:22Z</time>
      </trkpt>
      <trkpt lat="45.45177" lon="5.98478">
        <ele>407</ele>
        <time>2014-05-25T06:44:29Z</time>
      </trkpt>
      <trkpt lat="45.45193" lon="5.98497">
        <ele>407</ele>
        <time>2014-05-25T06:44:43Z</time>
      </trkpt>
      <trkpt lat="45.45215" lon="5.98512">
        <ele>402</ele>
        <time>2014-05-25T06:44:49Z</time>
      </trkpt>
      <trkpt lat="45.4524" lon="5.9851">
        <ele>403</ele>
        <time>2014-05-25T06:44:55Z</time>
      </trkpt>
      <trkpt lat="45.4526" lon="5.98499">
        <ele>406</ele>
        <time>2014-05-25T06:45:10Z</time>
      </trkpt>
      <trkpt lat="45.45281" lon="5.98487">
        <ele>406</ele>
        <time>2014-05-25T06:45:14Z</time>
      </trkpt>
      <trkpt lat="45.45304" lon="5.98489">
        <ele>403</ele>
        <time>2014-05-25T06:45:18Z</time>
      </trkpt>
      <trkpt lat="45.45324" lon="5.98492">
        <ele>398</ele>
        <time>2014-05-25T06:45:21Z</time>
      </trkpt>
      <trkpt lat="45.45341" lon="5.98486">
        <ele>392</ele>
        <time>2014-05-25T06:45:24Z</time>
      </trkpt>
      <trkpt lat="45.45359" lon="5.98467">
        <ele>393</ele>
        <time>2014-05-25T06:45:27Z</time>
      </trkpt>
      <trkpt lat="45.45375" lon="5.9845">
        <ele>392</ele>
        <time>2014-05-25T06:45:35Z</time>
      </trkpt>
      <trkpt lat="45.45383" lon="5.98426">
        <ele>393</ele>
        <time>2014-05-25T06:45:48Z</time>
      </trkpt>
      <trkpt lat="45.45388" lon="5.98401">
        <ele>400</ele>
        <time>2014-05-25T06:46:01Z</time>
      </trkpt>
      <trkpt lat="45.45404" lon="5.98386">
        <ele>399</ele>
        <time>2014-05-25T06:46:12Z</time>
      </trkpt>
      <trkpt lat="45.4542" lon="5.98366">
        <ele>382</ele>
        <time>2014-05-25T06:46:24Z</time>
      </trkpt>
      <trkpt lat="45.45431" lon="5.98336">
        <ele>387</ele>
        <time>2014-05-25T06:46:31Z</time>
      </trkpt>
      <trkpt lat="45.45435" lon="5.98308">
        <ele>385</ele>
        <time>2014-05-25T06:46:34Z</time>
      </trkpt>
      <trkpt lat="45.45438" lon="5.98281">
        <ele>385</ele>
        <time>2014-05-25T06:46:37Z</time>
      </trkpt>
      <trkpt lat="45.45449" lon="5.98259">
        <ele>383</ele>
        <time>2014-05-25T06:46:41Z</time>
      </trkpt>
      <trkpt lat="45.4547" lon="5.98233">
        <ele>383</ele>
        <time>2014-05-25T06:46:47Z</time>
      </trkpt>
      <trkpt lat="45.45473" lon="5.98208">
        <ele>385</ele>
        <time>2014-05-25T06:46:50Z</time>
      </trkpt>
      <trkpt lat="45.45481" lon="5.98184">
        <ele>385</ele>
        <time>2014-05-25T06:46:53Z</time>
      </trkpt>
      <trkpt lat="45.45494" lon="5.98161">
        <ele>383</ele>
        <time>2014-05-25T06:46:58Z</time>
      </trkpt>
      <trkpt lat="45.45505" lon="5.98139">
        <ele>374</ele>
        <time>2014-05-25T06:47:00Z</time>
      </trkpt>
      <trkpt lat="45.45517" lon="5.98118">
        <ele>374</ele>
        <time>2014-05-25T06:47:02Z</time>
      </trkpt>
      <trkpt lat="45.45532" lon="5.981">
        <ele>373</ele>
        <time>2014-05-25T06:47:05Z</time>
      </trkpt>
      <trkpt lat="45.45545" lon="5.98081">
        <ele>375</ele>
        <time>2014-05-25T06:47:10Z</time>
      </trkpt>
      <trkpt lat="45.45563" lon="5.98067">
        <ele>371</ele>
        <time>2014-05-25T06:47:16Z</time>
      </trkpt>
      <trkpt lat="45.45578" lon="5.98088">
        <ele>362</ele>
        <time>2014-05-25T06:47:20Z</time>
      </trkpt>
      <trkpt lat="45.45585" lon="5.98124">
        <ele>369</ele>
        <time>2014-05-25T06:47:24Z</time>
      </trkpt>
      <trkpt lat="45.45581" lon="5.98154">
        <ele>362</ele>
        <time>2014-05-25T06:47:28Z</time>
      </trkpt>
      <trkpt lat="45.45566" lon="5.98185">
        <ele>360</ele>
        <time>2014-05-25T06:47:31Z</time>
      </trkpt>
      <trkpt lat="45.45548" lon="5.98213">
        <ele>361</ele>
        <time>2014-05-25T06:47:33Z</time>
      </trkpt>
      <trkpt lat="45.45534" lon="5.98231">
        <ele>361</ele>
        <time>2014-05-25T06:47:35Z</time>
      </trkpt>
      <trkpt lat="45.45516" lon="5.9825">
        <ele>361</ele>
        <time>2014-05-25T06:47:38Z</time>
      </trkpt>
      <trkpt lat="45.45497" lon="5.98276">
        <ele>371</ele>
        <time>2014-05-25T06:47:41Z</time>
      </trkpt>
      <trkpt lat="45.45485" lon="5.98298">
        <ele>373</ele>
        <time>2014-05-25T06:47:43Z</time>
      </trkpt>
      <trkpt lat="45.45469" lon="5.98325">
        <ele>375</ele>
        <time>2014-05-25T06:47:45Z</time>
      </trkpt>
      <trkpt lat="45.45455" lon="5.98355">
        <ele>377</ele>
        <time>2014-05-25T06:47:47Z</time>
      </trkpt>
      <trkpt lat="45.45463" lon="5.98378">
        <ele>374</ele>
        <time>2014-05-25T06:47:50Z</time>
      </trkpt>
      <trkpt lat="45.45485" lon="5.98374">
        <ele>370</ele>
        <time>2014-05-25T06:47:53Z</time>
      </trkpt>
      <trkpt lat="45.45512" lon="5.9838">
        <ele>352</ele>
        <time>2014-05-25T06:47:55Z</time>
      </trkpt>
      <trkpt lat="45.45535" lon="5.98395">
        <ele>350</ele>
        <time>2014-05-25T06:47:57Z</time>
      </trkpt>
      <trkpt lat="45.45554" lon="5.98417">
        <ele>345</ele>
        <time>2014-05-25T06:48:00Z</time>
      </trkpt>
      <trkpt lat="45.45568" lon="5.98436">
        <ele>343</ele>
        <time>2014-05-25T06:48:03Z</time>
      </trkpt>
      <trkpt lat="45.45582" lon="5.98455">
        <ele>344</ele>
        <time>2014-05-25T06:48:06Z</time>
      </trkpt>
      <trkpt lat="45.456" lon="5.9847">
        <ele>338</ele>
        <time>2014-05-25T06:48:09Z</time>
      </trkpt>
      <trkpt lat="45.45623" lon="5.98466">
        <ele>339</ele>
        <time>2014-05-25T06:48:12Z</time>
      </trkpt>
      <trkpt lat="45.45643" lon="5.98459">
        <ele>341</ele>
        <time>2014-05-25T06:48:15Z</time>
      </trkpt>
      <trkpt lat="45.45665" lon="5.98461">
        <ele>341</ele>
        <time>2014-05-25T06:48:18Z</time>
      </trkpt>
      <trkpt lat="45.45682" lon="5.98475">
        <ele>346</ele>
        <time>2014-05-25T06:48:21Z</time>
      </trkpt>
      <trkpt lat="45.45699" lon="5.98495">
        <ele>346</ele>
        <time>2014-05-25T06:48:24Z</time>
      </trkpt>
      <trkpt lat="45.45706" lon="5.98525">
        <ele>332</ele>
        <time>2014-05-25T06:48:27Z</time>
      </trkpt>
      <trkpt lat="45.45706" lon="5.98562">
        <ele>329</ele>
        <time>2014-05-25T06:48:30Z</time>
      </trkpt>
      <trkpt lat="45.45707" lon="5.98587">
        <ele>323</ele>
        <time>2014-05-25T06:48:32Z</time>
      </trkpt>
      <trkpt lat="45.45719" lon="5.98617">
        <ele>321</ele>
        <time>2014-05-25T06:48:35Z</time>
      </trkpt>
      <trkpt lat="45.45737" lon="5.98637">
        <ele>319</ele>
        <time>2014-05-25T06:48:38Z</time>
      </trkpt>
      <trkpt lat="45.45757" lon="5.98652">
        <ele>314</ele>
        <time>2014-05-25T06:48:41Z</time>
      </trkpt>
      <trkpt lat="45.45783" lon="5.98665">
        <ele>315</ele>
        <time>2014-05-25T06:48:44Z</time>
      </trkpt>
      <trkpt lat="45.45807" lon="5.98674">
        <ele>314</ele>
        <time>2014-05-25T06:48:47Z</time>
      </trkpt>
      <trkpt lat="45.4583" lon="5.9868">
        <ele>314</ele>
        <time>2014-05-25T06:48:50Z</time>
      </trkpt>
      <trkpt lat="45.45848" lon="5.98694">
        <ele>314</ele>
        <time>2014-05-25T06:48:53Z</time>
      </trkpt>
      <trkpt lat="45.45864" lon="5.98717">
        <ele>313</ele>
        <time>2014-05-25T06:48:56Z</time>
      </trkpt>
      <trkpt lat="45.45876" lon="5.98739">
        <ele>312</ele>
        <time>2014-05-25T06:48:59Z</time>
      </trkpt>
      <trkpt lat="45.45889" lon="5.98757">
        <ele>308</ele>
        <time>2014-05-25T06:49:02Z</time>
      </trkpt>
      <trkpt lat="45.459" lon="5.98779">
        <ele>307</ele>
        <time>2014-05-25T06:49:05Z</time>
      </trkpt>
      <trkpt lat="45.45918" lon="5.98806">
        <ele>304</ele>
        <time>2014-05-25T06:49:08Z</time>
      </trkpt>
      <trkpt lat="45.45934" lon="5.98826">
        <ele>303</ele>
        <time>2014-05-25T06:49:11Z</time>
      </trkpt>
      <trkpt lat="45.45953" lon="5.98846">
        <ele>302</ele>
        <time>2014-05-25T06:49:14Z</time>
      </trkpt>
      <trkpt lat="45.45971" lon="5.9886">
        <ele>302</ele>
        <time>2014-05-25T06:49:17Z</time>
      </trkpt>
      <trkpt lat="45.45994" lon="5.98869">
        <ele>302</ele>
        <time>2014-05-25T06:49:20Z</time>
      </trkpt>
      <trkpt lat="45.46011" lon="5.98882">
        <ele>300</ele>
        <time>2014-05-25T06:49:23Z</time>
      </trkpt>
      <trkpt lat="45.46027" lon="5.98897">
        <ele>300</ele>
        <time>2014-05-25T06:49:26Z</time>
      </trkpt>
      <trkpt lat="45.46044" lon="5.98912">
        <ele>299</ele>
        <time>2014-05-25T06:49:30Z</time>
      </trkpt>
      <trkpt lat="45.46064" lon="5.98928">
        <ele>298</ele>
        <time>2014-05-25T06:49:34Z</time>
      </trkpt>
      <trkpt lat="45.46085" lon="5.98937">
        <ele>296</ele>
        <time>2014-05-25T06:49:38Z</time>
      </trkpt>
      <trkpt lat="45.46106" lon="5.98933">
        <ele>296</ele>
        <time>2014-05-25T06:49:42Z</time>
      </trkpt>
      <trkpt lat="45.46128" lon="5.98925">
        <ele>295</ele>
        <time>2014-05-25T06:49:45Z</time>
      </trkpt>
      <trkpt lat="45.4615" lon="5.98928">
        <ele>295</ele>
        <time>2014-05-25T06:49:49Z</time>
      </trkpt>
      <trkpt lat="45.46173" lon="5.98938">
        <ele>294</ele>
        <time>2014-05-25T06:49:53Z</time>
      </trkpt>
      <trkpt lat="45.46193" lon="5.98951">
        <ele>293</ele>
        <time>2014-05-25T06:49:57Z</time>
      </trkpt>
      <trkpt lat="45.46212" lon="5.98962">
        <ele>293</ele>
        <time>2014-05-25T06:50:02Z</time>
      </trkpt>
      <trkpt lat="45.46232" lon="5.98977">
        <ele>292</ele>
        <time>2014-05-25T06:50:06Z</time>
      </trkpt>
      <trkpt lat="45.46249" lon="5.9899">
        <ele>292</ele>
        <time>2014-05-25T06:50:09Z</time>
      </trkpt>
      <trkpt lat="45.46266" lon="5.99002">
        <ele>291</ele>
        <time>2014-05-25T06:50:12Z</time>
      </trkpt>
      <trkpt lat="45.46285" lon="5.99019">
        <ele>291</ele>
        <time>2014-05-25T06:50:16Z</time>
      </trkpt>
      <trkpt lat="45.46303" lon="5.99034">
        <ele>291</ele>
        <time>2014-05-25T06:50:20Z</time>
      </trkpt>
      <trkpt lat="45.46323" lon="5.99038">
        <ele>291</ele>
        <time>2014-05-25T06:50:24Z</time>
      </trkpt>
      <trkpt lat="45.46341" lon="5.99037">
        <ele>289</ele>
        <time>2014-05-25T06:50:31Z</time>
      </trkpt>
      <trkpt lat="45.46365" lon="5.99033">
        <ele>289</ele>
        <time>2014-05-25T06:50:43Z</time>
      </trkpt>
      <trkpt lat="45.46387" lon="5.99032">
        <ele>289</ele>
        <time>2014-05-25T06:50:52Z</time>
      </trkpt>
      <trkpt lat="45.46399" lon="5.99011">
        <ele>289</ele>
        <time>2014-05-25T06:50:59Z</time>
      </trkpt>
      <trkpt lat="45.46396" lon="5.98984">
        <ele>289</ele>
        <time>2014-05-25T06:51:04Z</time>
      </trkpt>
      <trkpt lat="45.46393" lon="5.98955">
        <ele>289</ele>
        <time>2014-05-25T06:51:09Z</time>
      </trkpt>
      <trkpt lat="45.4639" lon="5.98926">
        <ele>289</ele>
        <time>2014-05-25T06:51:14Z</time>
      </trkpt>
      <trkpt lat="45.46383" lon="5.98896">
        <ele>289</ele>
        <time>2014-05-25T06:51:19Z</time>
      </trkpt>
      <trkpt lat="45.46381" lon="5.98869">
        <ele>290</ele>
        <time>2014-05-25T06:51:24Z</time>
      </trkpt>
      <trkpt lat="45.46382" lon="5.98836">
        <ele>290</ele>
        <time>2014-05-25T06:51:29Z</time>
      </trkpt>
      <trkpt lat="45.46379" lon="5.98807">
        <ele>291</ele>
        <time>2014-05-25T06:51:35Z</time>
      </trkpt>
      <trkpt lat="45.46374" lon="5.98777">
        <ele>291</ele>
        <time>2014-05-25T06:51:40Z</time>
      </trkpt>
      <trkpt lat="45.46369" lon="5.9875">
        <ele>294</ele>
        <time>2014-05-25T06:51:45Z</time>
      </trkpt>
      <trkpt lat="45.46364" lon="5.98725">
        <ele>295</ele>
        <time>2014-05-25T06:51:51Z</time>
      </trkpt>
      <trkpt lat="45.46357" lon="5.98698">
        <ele>297</ele>
        <time>2014-05-25T06:51:58Z</time>
      </trkpt>
      <trkpt lat="45.46367" lon="5.98671">
        <ele>297</ele>
        <time>2014-05-25T06:52:04Z</time>
      </trkpt>
      <trkpt lat="45.46389" lon="5.98664">
        <ele>301</ele>
        <time>2014-05-25T06:52:09Z</time>
      </trkpt>
      <trkpt lat="45.46411" lon="5.98661">
        <ele>298</ele>
        <time>2014-05-25T06:52:12Z</time>
      </trkpt>
      <trkpt lat="45.46434" lon="5.98659">
        <ele>297</ele>
        <time>2014-05-25T06:52:15Z</time>
      </trkpt>
      <trkpt lat="45.46454" lon="5.98652">
        <ele>297</ele>
        <time>2014-05-25T06:52:20Z</time>
      </trkpt>
      <trkpt lat="45.46476" lon="5.98649">
        <ele>296</ele>
        <time>2014-05-25T06:52:25Z</time>
      </trkpt>
      <trkpt lat="45.46496" lon="5.98644">
        <ele>295</ele>
        <time>2014-05-25T06:52:29Z</time>
      </trkpt>
      <trkpt lat="45.46515" lon="5.98635">
        <ele>292</ele>
        <time>2014-05-25T06:52:34Z</time>
      </trkpt>
      <trkpt lat="45.46531" lon="5.98622">
        <ele>292</ele>
        <time>2014-05-25T06:53:25Z</time>
      </trkpt>
      <trkpt lat="45.4653" lon="5.98595">
        <ele>293</ele>
        <time>2014-05-25T06:54:19Z</time>
      </trkpt>
      <trkpt lat="45.46524" lon="5.98569">
        <ele>296</ele>
        <time>2014-05-25T06:54:43Z</time>
      </trkpt>
      <trkpt lat="45.46519" lon="5.98542">
        <ele>297</ele>
        <time>2014-05-25T06:54:53Z</time>
      </trkpt>
      <trkpt lat="45.4651" lon="5.98518">
        <ele>298</ele>
        <time>2014-05-25T06:55:02Z</time>
      </trkpt>
      <trkpt lat="45.4649" lon="5.98514">
        <ele>303</ele>
        <time>2014-05-25T06:55:14Z</time>
      </trkpt>
      <trkpt lat="45.46482" lon="5.98538">
        <ele>304</ele>
        <time>2014-05-25T06:55:25Z</time>
      </trkpt>
      <trkpt lat="45.46477" lon="5.98563">
        <ele>303</ele>
        <time>2014-05-25T06:55:36Z</time>
      </trkpt>
      <trkpt lat="45.46457" lon="5.98581">
        <ele>305</ele>
        <time>2014-05-25T06:55:54Z</time>
      </trkpt>
      <trkpt lat="45.46443" lon="5.98553">
        <ele>306</ele>
        <time>2014-05-25T06:56:09Z</time>
      </trkpt>
      <trkpt lat="45.4644" lon="5.98525">
        <ele>307</ele>
        <time>2014-05-25T06:56:19Z</time>
      </trkpt>
      <trkpt lat="45.46431" lon="5.98501">
        <ele>310</ele>
        <time>2014-05-25T06:56:34Z</time>
      </trkpt>
      <trkpt lat="45.46418" lon="5.98483">
        <ele>312</ele>
        <time>2014-05-25T06:56:51Z</time>
      </trkpt>
      <trkpt lat="45.46401" lon="5.98462">
        <ele>318</ele>
        <time>2014-05-25T06:57:01Z</time>
      </trkpt>
      <trkpt lat="45.46385" lon="5.98444">
        <ele>319</ele>
        <time>2014-05-25T06:57:11Z</time>
      </trkpt>
      <trkpt lat="45.46369" lon="5.98429">
        <ele>321</ele>
        <time>2014-05-25T06:57:17Z</time>
      </trkpt>
      <trkpt lat="45.46351" lon="5.98421">
        <ele>324</ele>
        <time>2014-05-25T06:57:33Z</time>
      </trkpt>
      <trkpt lat="45.46336" lon="5.98404">
        <ele>327</ele>
        <time>2014-05-25T06:57:42Z</time>
      </trkpt>
      <trkpt lat="45.46324" lon="5.98385">
        <ele>340</ele>
        <time>2014-05-25T06:57:50Z</time>
      </trkpt>
      <trkpt lat="45.46314" lon="5.98362">
        <ele>343</ele>
        <time>2014-05-25T06:57:57Z</time>
      </trkpt>
      <trkpt lat="45.46306" lon="5.98338">
        <ele>344</ele>
        <time>2014-05-25T06:58:05Z</time>
      </trkpt>
      <trkpt lat="45.463" lon="5.98312">
        <ele>351</ele>
        <time>2014-05-25T06:58:15Z</time>
      </trkpt>
      <trkpt lat="45.46294" lon="5.98288">
        <ele>353</ele>
        <time>2014-05-25T06:58:23Z</time>
      </trkpt>
      <trkpt lat="45.46284" lon="5.98266">
        <ele>355</ele>
        <time>2014-05-25T06:58:30Z</time>
      </trkpt>
      <trkpt lat="45.4628" lon="5.98239">
        <ele>361</ele>
        <time>2014-05-25T06:58:37Z</time>
      </trkpt>
      <trkpt lat="45.46279" lon="5.98211">
        <ele>361</ele>
        <time>2014-05-25T06:58:46Z</time>
      </trkpt>
      <trkpt lat="45.46274" lon="5.98185">
        <ele>363</ele>
        <time>2014-05-25T06:58:59Z</time>
      </trkpt>
      <trkpt lat="45.46267" lon="5.98212">
        <ele>363</ele>
        <time>2014-05-25T06:59:11Z</time>
      </trkpt>
      <trkpt lat="45.46269" lon="5.98239">
        <ele>363</ele>
        <time>2014-05-25T06:59:16Z</time>
      </trkpt>
      <trkpt lat="45.46266" lon="5.98266">
        <ele>360</ele>
        <time>2014-05-25T06:59:30Z</time>
      </trkpt>
      <trkpt lat="45.46267" lon="5.98291">
        <ele>357</ele>
        <time>2014-05-25T06:59:47Z</time>
      </trkpt>
      <trkpt lat="45.46267" lon="5.98318">
        <ele>358</ele>
        <time>2014-05-25T06:59:53Z</time>
      </trkpt>
      <trkpt lat="45.46262" lon="5.98343">
        <ele>357</ele>
        <time>2014-05-25T07:00:03Z</time>
      </trkpt>
      <trkpt lat="45.46257" lon="5.98368">
        <ele>352</ele>
        <time>2014-05-25T07:00:15Z</time>
      </trkpt>
      <trkpt lat="45.46239" lon="5.98381">
        <ele>371</ele>
        <time>2014-05-25T07:00:33Z</time>
      </trkpt>
      <trkpt lat="45.46219" lon="5.98381">
        <ele>375</ele>
        <time>2014-05-25T07:00:41Z</time>
      </trkpt>
      <trkpt lat="45.46201" lon="5.98385">
        <ele>378</ele>
        <time>2014-05-25T07:00:51Z</time>
      </trkpt>
      <trkpt lat="45.46185" lon="5.98399">
        <ele>380</ele>
        <time>2014-05-25T07:01:09Z</time>
      </trkpt>
      <trkpt lat="45.46171" lon="5.98418">
        <ele>382</ele>
        <time>2014-05-25T07:01:13Z</time>
      </trkpt>
      <trkpt lat="45.46155" lon="5.98435">
        <ele>387</ele>
        <time>2014-05-25T07:01:28Z</time>
      </trkpt>
      <trkpt lat="45.4614" lon="5.98449">
        <ele>387</ele>
        <time>2014-05-25T07:01:42Z</time>
      </trkpt>
      <trkpt lat="45.46121" lon="5.98465">
        <ele>387</ele>
        <time>2014-05-25T07:01:55Z</time>
      </trkpt>
      <trkpt lat="45.46103" lon="5.98475">
        <ele>388</ele>
        <time>2014-05-25T07:02:06Z</time>
      </trkpt>
      <trkpt lat="45.46085" lon="5.98478">
        <ele>389</ele>
        <time>2014-05-25T07:02:16Z</time>
      </trkpt>
      <trkpt lat="45.46068" lon="5.98487">
        <ele>395</ele>
        <time>2014-05-25T07:02:29Z</time>
      </trkpt>
      <trkpt lat="45.46049" lon="5.98493">
        <ele>397</ele>
        <time>2014-05-25T07:02:43Z</time>
      </trkpt>
      <trkpt lat="45.4603" lon="5.98489">
        <ele>398</ele>
        <time>2014-05-25T07:02:58Z</time>
      </trkpt>
      <trkpt lat="45.46015" lon="5.98475">
        <ele>400</ele>
        <time>2014-05-25T07:03:06Z</time>
      </trkpt>
      <trkpt lat="45.46001" lon="5.98458">
        <ele>402</ele>
        <time>2014-05-25T07:03:19Z</time>
      </trkpt>
      <trkpt lat="45.45988" lon="5.9844">
        <ele>401</ele>
        <time>2014-05-25T07:03:31Z</time>
      </trkpt>
      <trkpt lat="45.45979" lon="5.98417">
        <ele>402</ele>
        <time>2014-05-25T07:03:42Z</time>
      </trkpt>
      <trkpt lat="45.45969" lon="5.98394">
        <ele>408</ele>
        <time>2014-05-25T07:03:53Z</time>
      </trkpt>
      <trkpt lat="45.45967" lon="5.98368">
        <ele>410</ele>
        <time>2014-05-25T07:04:01Z</time>
      </trkpt>
      <trkpt lat="45.45975" lon="5.98344">
        <ele>412</ele>
        <time>2014-05-25T07:04:09Z</time>
      </trkpt>
      <trkpt lat="45.45983" lon="5.98319">
        <ele>422</ele>
        <time>2014-05-25T07:04:18Z</time>
      </trkpt>
      <trkpt lat="45.45994" lon="5.98296">
        <ele>424</ele>
        <time>2014-05-25T07:04:27Z</time>
      </trkpt>
      <trkpt lat="45.46004" lon="5.98272">
        <ele>426</ele>
        <time>2014-05-25T07:04:37Z</time>
      </trkpt>
      <trkpt lat="45.46013" lon="5.98249">
        <ele>431</ele>
        <time>2014-05-25T07:04:45Z</time>
      </trkpt>
      <trkpt lat="45.46024" lon="5.98229">
        <ele>432</ele>
        <time>2014-05-25T07:04:53Z</time>
      </trkpt>
      <trkpt lat="45.46012" lon="5.98206">
        <ele>435</ele>
        <time>2014-05-25T07:05:10Z</time>
      </trkpt>
      <trkpt lat="45.45993" lon="5.98214">
        <ele>439</ele>
        <time>2014-05-25T07:05:25Z</time>
      </trkpt>
      <trkpt lat="45.45976" lon="5.98227">
        <ele>438</ele>
        <time>2014-05-25T07:05:36Z</time>
      </trkpt>
      <trkpt lat="45.45957" lon="5.98233">
        <ele>438</ele>
        <time>2014-05-25T07:05:45Z</time>
      </trkpt>
      <trkpt lat="45.45942" lon="5.98249">
        <ele>438</ele>
        <time>2014-05-25T07:05:55Z</time>
      </trkpt>
      <trkpt lat="45.45934" lon="5.98225">
        <ele>439</ele>
        <time>2014-05-25T07:06:08Z</time>
      </trkpt>
      <trkpt lat="45.45943" lon="5.98201">
        <ele>442</ele>
        <time>2014-05-25T07:06:21Z</time>
      </trkpt>
      <trkpt lat="45.45955" lon="5.98181">
        <ele>443</ele>
        <time>2014-05-25T07:06:30Z</time>
      </trkpt>
      <trkpt lat="45.45965" lon="5.98156">
        <ele>451</ele>
        <time>2014-05-25T07:06:43Z</time>
      </trkpt>
      <trkpt lat="45.45971" lon="5.98132">
        <ele>452</ele>
        <time>2014-05-25T07:06:53Z</time>
      </trkpt>
      <trkpt lat="45.45977" lon="5.98107">
        <ele>454</ele>
        <time>2014-05-25T07:07:01Z</time>
      </trkpt>
      <trkpt lat="45.45983" lon="5.98082">
        <ele>459</ele>
        <time>2014-05-25T07:07:15Z</time>
      </trkpt>
      <trkpt lat="45.4599" lon="5.98058">
        <ele>460</ele>
        <time>2014-05-25T07:07:26Z</time>
      </trkpt>
      <trkpt lat="45.45995" lon="5.9803">
        <ele>461</ele>
        <time>2014-05-25T07:07:37Z</time>
      </trkpt>
      <trkpt lat="45.4599" lon="5.98004">
        <ele>462</ele>
        <time>2014-05-25T07:07:48Z</time>
      </trkpt>
      <trkpt lat="45.45982" lon="5.97978">
        <ele>466</ele>
        <time>2014-05-25T07:08:04Z</time>
      </trkpt>
      <trkpt lat="45.45978" lon="5.97953">
        <ele>467</ele>
        <time>2014-05-25T07:08:16Z</time>
      </trkpt>
      <trkpt lat="45.45981" lon="5.97927">
        <ele>468</ele>
        <time>2014-05-25T07:08:27Z</time>
      </trkpt>
      <trkpt lat="45.45979" lon="5.979">
        <ele>473</ele>
        <time>2014-05-25T07:08:33Z</time>
      </trkpt>
      <trkpt lat="45.45978" lon="5.97874">
        <ele>475</ele>
        <time>2014-05-25T07:08:41Z</time>
      </trkpt>
      <trkpt lat="45.45982" lon="5.97848">
        <ele>475</ele>
        <time>2014-05-25T07:08:55Z</time>
      </trkpt>
      <trkpt lat="45.45987" lon="5.97819">
        <ele>478</ele>
        <time>2014-05-25T07:09:04Z</time>
      </trkpt>
      <trkpt lat="45.45995" lon="5.97796">
        <ele>480</ele>
        <time>2014-05-25T07:09:14Z</time>
      </trkpt>
      <trkpt lat="45.46006" lon="5.97774">
        <ele>474</ele>
        <time>2014-05-25T07:09:26Z</time>
      </trkpt>
      <trkpt lat="45.46017" lon="5.97752">
        <ele>475</ele>
        <time>2014-05-25T07:09:40Z</time>
      </trkpt>
      <trkpt lat="45.4603" lon="5.97731">
        <ele>481</ele>
        <time>2014-05-25T07:09:51Z</time>
      </trkpt>
      <trkpt lat="45.46044" lon="5.9771">
        <ele>481</ele>
        <time>2014-05-25T07:10:00Z</time>
      </trkpt>
      <trkpt lat="45.46055" lon="5.97689">
        <ele>482</ele>
        <time>2014-05-25T07:10:08Z</time>
      </trkpt>
      <trkpt lat="45.46066" lon="5.97669">
        <ele>482</ele>
        <time>2014-05-25T07:10:16Z</time>
      </trkpt>
      <trkpt lat="45.46076" lon="5.97647">
        <ele>490</ele>
        <time>2014-05-25T07:10:23Z</time>
      </trkpt>
      <trkpt lat="45.46087" lon="5.97623">
        <ele>487</ele>
        <time>2014-05-25T07:10:32Z</time>
      </trkpt>
      <trkpt lat="45.46099" lon="5.97603">
        <ele>489</ele>
        <time>2014-05-25T07:10:40Z</time>
      </trkpt>
      <trkpt lat="45.46111" lon="5.97581">
        <ele>498</ele>
        <time>2014-05-25T07:10:48Z</time>
      </trkpt>
      <trkpt lat="45.46121" lon="5.97557">
        <ele>499</ele>
        <time>2014-05-25T07:10:56Z</time>
      </trkpt>
      <trkpt lat="45.46131" lon="5.97535">
        <ele>500</ele>
        <time>2014-05-25T07:11:04Z</time>
      </trkpt>
      <trkpt lat="45.46139" lon="5.9751">
        <ele>502</ele>
        <time>2014-05-25T07:11:13Z</time>
      </trkpt>
      <trkpt lat="45.46156" lon="5.97496">
        <ele>508</ele>
        <time>2014-05-25T07:11:20Z</time>
      </trkpt>
      <trkpt lat="45.46172" lon="5.97484">
        <ele>506</ele>
        <time>2014-05-25T07:11:30Z</time>
      </trkpt>
      <trkpt lat="45.46189" lon="5.97474">
        <ele>507</ele>
        <time>2014-05-25T07:11:43Z</time>
      </trkpt>
      <trkpt lat="45.46206" lon="5.97462">
        <ele>507</ele>
        <time>2014-05-25T07:11:56Z</time>
      </trkpt>
      <trkpt lat="45.46223" lon="5.97452">
        <ele>507</ele>
        <time>2014-05-25T07:12:08Z</time>
      </trkpt>
      <trkpt lat="45.46242" lon="5.97446">
        <ele>508</ele>
        <time>2014-05-25T07:12:17Z</time>
      </trkpt>
      <trkpt lat="45.46261" lon="5.97441">
        <ele>506</ele>
        <time>2014-05-25T07:12:27Z</time>
      </trkpt>
      <trkpt lat="45.46278" lon="5.97427">
        <ele>507</ele>
        <time>2014-05-25T07:12:35Z</time>
      </trkpt>
      <trkpt lat="45.46295" lon="5.97415">
        <ele>518</ele>
        <time>2014-05-25T07:12:45Z</time>
      </trkpt>
      <trkpt lat="45.46312" lon="5.974">
        <ele>518</ele>
        <time>2014-05-25T07:12:55Z</time>
      </trkpt>
      <trkpt lat="45.46326" lon="5.97383">
        <ele>519</ele>
        <time>2014-05-25T07:13:06Z</time>
      </trkpt>
      <trkpt lat="45.4634" lon="5.97366">
        <ele>518</ele>
        <time>2014-05-25T07:13:15Z</time>
      </trkpt>
      <trkpt lat="45.46354" lon="5.97348">
        <ele>519</ele>
        <time>2014-05-25T07:13:22Z</time>
      </trkpt>
      <trkpt lat="45.46368" lon="5.9733">
        <ele>526</ele>
        <time>2014-05-25T07:13:29Z</time>
      </trkpt>
      <trkpt lat="45.46379" lon="5.97309">
        <ele>527</ele>
        <time>2014-05-25T07:13:37Z</time>
      </trkpt>
      <trkpt lat="45.46391" lon="5.97287">
        <ele>527</ele>
        <time>2014-05-25T07:13:45Z</time>
      </trkpt>
      <trkpt lat="45.464" lon="5.97266">
        <ele>528</ele>
        <time>2014-05-25T07:13:53Z</time>
      </trkpt>
      <trkpt lat="45.46406" lon="5.97238">
        <ele>534</ele>
        <time>2014-05-25T07:14:00Z</time>
      </trkpt>
      <trkpt lat="45.46413" lon="5.97212">
        <ele>538</ele>
        <time>2014-05-25T07:14:08Z</time>
      </trkpt>
      <trkpt lat="45.46432" lon="5.97214">
        <ele>530</ele>
        <time>2014-05-25T07:14:15Z</time>
      </trkpt>
      <trkpt lat="45.4645" lon="5.97226">
        <ele>530</ele>
        <time>2014-05-25T07:14:22Z</time>
      </trkpt>
      <trkpt lat="45.46469" lon="5.97236">
        <ele>529</ele>
        <time>2014-05-25T07:14:28Z</time>
      </trkpt>
      <trkpt lat="45.46487" lon="5.97243">
        <ele>528</ele>
        <time>2014-05-25T07:14:35Z</time>
      </trkpt>
      <trkpt lat="45.46506" lon="5.97253">
        <ele>526</ele>
        <time>2014-05-25T07:14:43Z</time>
      </trkpt>
      <trkpt lat="45.46526" lon="5.9726">
        <ele>527</ele>
        <time>2014-05-25T07:14:50Z</time>
      </trkpt>
      <trkpt lat="45.46545" lon="5.97268">
        <ele>528</ele>
        <time>2014-05-25T07:21:56Z</time>
      </trkpt>
      <trkpt lat="45.46563" lon="5.97271">
        <ele>529</ele>
        <time>2014-05-25T07:22:05Z</time>
      </trkpt>
      <trkpt lat="45.46582" lon="5.97273">
        <ele>530</ele>
        <time>2014-05-25T07:22:12Z</time>
      </trkpt>
      <trkpt lat="45.46601" lon="5.9727">
        <ele>532</ele>
        <time>2014-05-25T07:22:19Z</time>
      </trkpt>
      <trkpt lat="45.4662" lon="5.97272">
        <ele>532</ele>
        <time>2014-05-25T07:22:25Z</time>
      </trkpt>
      <trkpt lat="45.46638" lon="5.97265">
        <ele>532</ele>
        <time>2014-05-25T07:22:31Z</time>
      </trkpt>
      <trkpt lat="45.46643" lon="5.97239">
        <ele>532</ele>
        <time>2014-05-25T07:22:38Z</time>
      </trkpt>
      <trkpt lat="45.46642" lon="5.9721">
        <ele>532</ele>
        <time>2014-05-25T07:22:45Z</time>
      </trkpt>
      <trkpt lat="45.4664" lon="5.97183">
        <ele>532</ele>
        <time>2014-05-25T07:22:51Z</time>
      </trkpt>
      <trkpt lat="45.46639" lon="5.97155">
        <ele>533</ele>
        <time>2014-05-25T07:22:59Z</time>
      </trkpt>
      <trkpt lat="45.46636" lon="5.97128">
        <ele>534</ele>
        <time>2014-05-25T07:23:08Z</time>
      </trkpt>
      <trkpt lat="45.46636" lon="5.97101">
        <ele>535</ele>
        <time>2014-05-25T07:23:16Z</time>
      </trkpt>
      <trkpt lat="45.46637" lon="5.97075">
        <ele>540</ele>
        <time>2014-05-25T07:23:27Z</time>
      </trkpt>
      <trkpt lat="45.46616" lon="5.97073">
        <ele>542</ele>
        <time>2014-05-25T07:23:38Z</time>
      </trkpt>
      <trkpt lat="45.46598" lon="5.97073">
        <ele>543</ele>
        <time>2014-05-25T07:23:49Z</time>
      </trkpt>
      <trkpt lat="45.46579" lon="5.97066">
        <ele>546</ele>
        <time>2014-05-25T07:23:59Z</time>
      </trkpt>
      <trkpt lat="45.46564" lon="5.9705">
        <ele>548</ele>
        <time>2014-05-25T07:24:11Z</time>
      </trkpt>
      <trkpt lat="45.46549" lon="5.97036">
        <ele>549</ele>
        <time>2014-05-25T07:24:24Z</time>
      </trkpt>
      <trkpt lat="45.4654" lon="5.97014">
        <ele>551</ele>
        <time>2014-05-25T07:24:36Z</time>
      </trkpt>
      <trkpt lat="45.46542" lon="5.96987">
        <ele>560</ele>
        <time>2014-05-25T07:24:50Z</time>
      </trkpt>
      <trkpt lat="45.46556" lon="5.9697">
        <ele>561</ele>
        <time>2014-05-25T07:25:05Z</time>
      </trkpt>
      <trkpt lat="45.46572" lon="5.96957">
        <ele>562</ele>
        <time>2014-05-25T07:25:16Z</time>
      </trkpt>
      <trkpt lat="45.46587" lon="5.96943">
        <ele>559</ele>
        <time>2014-05-25T07:25:27Z</time>
      </trkpt>
      <trkpt lat="45.466" lon="5.96924">
        <ele>561</ele>
        <time>2014-05-25T07:25:39Z</time>
      </trkpt>
      <trkpt lat="45.46608" lon="5.96897">
        <ele>567</ele>
        <time>2014-05-25T07:25:51Z</time>
      </trkpt>
      <trkpt lat="45.46611" lon="5.96871">
        <ele>568</ele>
        <time>2014-05-25T07:26:02Z</time>
      </trkpt>
      <trkpt lat="45.46609" lon="5.96844">
        <ele>570</ele>
        <time>2014-05-25T07:26:15Z</time>
      </trkpt>
      <trkpt lat="45.46604" lon="5.96818">
        <ele>578</ele>
        <time>2014-05-25T07:26:28Z</time>
      </trkpt>
      <trkpt lat="45.46603" lon="5.96791">
        <ele>581</ele>
        <time>2014-05-25T07:26:40Z</time>
      </trkpt>
      <trkpt lat="45.46616" lon="5.96771">
        <ele>583</ele>
        <time>2014-05-25T07:26:56Z</time>
      </trkpt>
      <trkpt lat="45.46632" lon="5.9676">
        <ele>583</ele>
        <time>2014-05-25T07:27:07Z</time>
      </trkpt>
      <trkpt lat="45.4665" lon="5.96753">
        <ele>584</ele>
        <time>2014-05-25T07:27:17Z</time>
      </trkpt>
      <trkpt lat="45.46668" lon="5.96748">
        <ele>588</ele>
        <time>2014-05-25T07:27:28Z</time>
      </trkpt>
      <trkpt lat="45.46687" lon="5.96746">
        <ele>593</ele>
        <time>2014-05-25T07:27:40Z</time>
      </trkpt>
      <trkpt lat="45.46706" lon="5.96745">
        <ele>596</ele>
        <time>2014-05-25T07:27:52Z</time>
      </trkpt>
      <trkpt lat="45.46726" lon="5.96748">
        <ele>596</ele>
        <time>2014-05-25T07:28:06Z</time>
      </trkpt>
      <trkpt lat="45.46744" lon="5.96749">
        <ele>596</ele>
        <time>2014-05-25T07:28:17Z</time>
      </trkpt>
      <trkpt lat="45.46762" lon="5.96741">
        <ele>598</ele>
        <time>2014-05-25T07:28:29Z</time>
      </trkpt>
      <trkpt lat="45.46772" lon="5.96719">
        <ele>601</ele>
        <time>2014-05-25T07:28:45Z</time>
      </trkpt>
      <trkpt lat="45.46785" lon="5.967">
        <ele>603</ele>
        <time>2014-05-25T07:28:56Z</time>
      </trkpt>
      <trkpt lat="45.46797" lon="5.96677">
        <ele>604</ele>
        <time>2014-05-25T07:29:08Z</time>
      </trkpt>
      <trkpt lat="45.46806" lon="5.96653">
        <ele>605</ele>
        <time>2014-05-25T07:29:18Z</time>
      </trkpt>
      <trkpt lat="45.46807" lon="5.96627">
        <ele>605</ele>
        <time>2014-05-25T07:29:26Z</time>
      </trkpt>
      <trkpt lat="45.46791" lon="5.96611">
        <ele>604</ele>
        <time>2014-05-25T07:29:32Z</time>
      </trkpt>
      <trkpt lat="45.46772" lon="5.96617">
        <ele>605</ele>
        <time>2014-05-25T07:29:40Z</time>
      </trkpt>
      <trkpt lat="45.46753" lon="5.96628">
        <ele>605</ele>
        <time>2014-05-25T07:29:49Z</time>
      </trkpt>
      <trkpt lat="45.46735" lon="5.96637">
        <ele>607</ele>
        <time>2014-05-25T07:29:58Z</time>
      </trkpt>
      <trkpt lat="45.46718" lon="5.96644">
        <ele>607</ele>
        <time>2014-05-25T07:30:06Z</time>
      </trkpt>
      <trkpt lat="45.46698" lon="5.96649">
        <ele>607</ele>
        <time>2014-05-25T07:30:14Z</time>
      </trkpt>
      <trkpt lat="45.46678" lon="5.96653">
        <ele>606</ele>
        <time>2014-05-25T07:30:23Z</time>
      </trkpt>
      <trkpt lat="45.4666" lon="5.96649">
        <ele>608</ele>
        <time>2014-05-25T07:30:31Z</time>
      </trkpt>
      <trkpt lat="45.4664" lon="5.96645">
        <ele>609</ele>
        <time>2014-05-25T07:30:39Z</time>
      </trkpt>
      <trkpt lat="45.46619" lon="5.96646">
        <ele>609</ele>
        <time>2014-05-25T07:30:48Z</time>
      </trkpt>
      <trkpt lat="45.466" lon="5.96645">
        <ele>609</ele>
        <time>2014-05-25T07:30:56Z</time>
      </trkpt>
      <trkpt lat="45.46579" lon="5.96639">
        <ele>615</ele>
        <time>2014-05-25T07:31:04Z</time>
      </trkpt>
      <trkpt lat="45.46559" lon="5.96635">
        <ele>617</ele>
        <time>2014-05-25T07:31:12Z</time>
      </trkpt>
      <trkpt lat="45.46541" lon="5.9664">
        <ele>618</ele>
        <time>2014-05-25T07:31:21Z</time>
      </trkpt>
      <trkpt lat="45.46524" lon="5.96649">
        <ele>619</ele>
        <time>2014-05-25T07:31:31Z</time>
      </trkpt>
      <trkpt lat="45.46506" lon="5.96652">
        <ele>621</ele>
        <time>2014-05-25T07:31:41Z</time>
      </trkpt>
      <trkpt lat="45.46486" lon="5.9665">
        <ele>627</ele>
        <time>2014-05-25T07:31:52Z</time>
      </trkpt>
      <trkpt lat="45.46467" lon="5.96646">
        <ele>629</ele>
        <time>2014-05-25T07:32:03Z</time>
      </trkpt>
      <trkpt lat="45.46448" lon="5.96642">
        <ele>631</ele>
        <time>2014-05-25T07:32:15Z</time>
      </trkpt>
      <trkpt lat="45.4643" lon="5.96637">
        <ele>632</ele>
        <time>2014-05-25T07:32:26Z</time>
      </trkpt>
      <trkpt lat="45.46412" lon="5.96631">
        <ele>638</ele>
        <time>2014-05-25T07:32:39Z</time>
      </trkpt>
      <trkpt lat="45.46392" lon="5.9663">
        <ele>639</ele>
        <time>2014-05-25T07:32:52Z</time>
      </trkpt>
      <trkpt lat="45.46373" lon="5.96632">
        <ele>640</ele>
        <time>2014-05-25T07:33:03Z</time>
      </trkpt>
      <trkpt lat="45.46354" lon="5.96634">
        <ele>641</ele>
        <time>2014-05-25T07:33:18Z</time>
      </trkpt>
      <trkpt lat="45.46335" lon="5.96638">
        <ele>641</ele>
        <time>2014-05-25T07:33:30Z</time>
      </trkpt>
      <trkpt lat="45.46317" lon="5.96634">
        <ele>645</ele>
        <time>2014-05-25T07:33:41Z</time>
      </trkpt>
      <trkpt lat="45.46298" lon="5.96634">
        <ele>646</ele>
        <time>2014-05-25T07:33:54Z</time>
      </trkpt>
      <trkpt lat="45.4628" lon="5.96629">
        <ele>646</ele>
        <time>2014-05-25T07:34:07Z</time>
      </trkpt>
      <trkpt lat="45.46261" lon="5.96624">
        <ele>647</ele>
        <time>2014-05-25T07:34:20Z</time>
      </trkpt>
      <trkpt lat="45.46243" lon="5.96622">
        <ele>653</ele>
        <time>2014-05-25T07:34:31Z</time>
      </trkpt>
      <trkpt lat="45.46225" lon="5.96619">
        <ele>654</ele>
        <time>2014-05-25T07:34:44Z</time>
      </trkpt>
      <trkpt lat="45.46206" lon="5.96615">
        <ele>656</ele>
        <time>2014-05-25T07:34:57Z</time>
      </trkpt>
      <trkpt lat="45.46187" lon="5.96615">
        <ele>657</ele>
        <time>2014-05-25T07:35:09Z</time>
      </trkpt>
      <trkpt lat="45.46169" lon="5.9662">
        <ele>658</ele>
        <time>2014-05-25T07:35:22Z</time>
      </trkpt>
      <trkpt lat="45.46152" lon="5.96633">
        <ele>668</ele>
        <time>2014-05-25T07:35:35Z</time>
      </trkpt>
      <trkpt lat="45.46134" lon="5.96644">
        <ele>669</ele>
        <time>2014-05-25T07:35:46Z</time>
      </trkpt>
      <trkpt lat="45.46118" lon="5.9666">
        <ele>671</ele>
        <time>2014-05-25T07:35:58Z</time>
      </trkpt>
      <trkpt lat="45.46103" lon="5.96674">
        <ele>667</ele>
        <time>2014-05-25T07:36:09Z</time>
      </trkpt>
      <trkpt lat="45.46085" lon="5.96682">
        <ele>669</ele>
        <time>2014-05-25T07:36:21Z</time>
      </trkpt>
      <trkpt lat="45.46066" lon="5.96688">
        <ele>677</ele>
        <time>2014-05-25T07:36:33Z</time>
      </trkpt>
      <trkpt lat="45.4605" lon="5.96701">
        <ele>678</ele>
        <time>2014-05-25T07:36:45Z</time>
      </trkpt>
      <trkpt lat="45.46034" lon="5.96713">
        <ele>680</ele>
        <time>2014-05-25T07:36:58Z</time>
      </trkpt>
      <trkpt lat="45.46017" lon="5.96724">
        <ele>681</ele>
        <time>2014-05-25T07:37:13Z</time>
      </trkpt>
      <trkpt lat="45.46002" lon="5.96738">
        <ele>682</ele>
        <time>2014-05-25T07:37:24Z</time>
      </trkpt>
      <trkpt lat="45.45985" lon="5.96749">
        <ele>688</ele>
        <time>2014-05-25T07:37:35Z</time>
      </trkpt>
      <trkpt lat="45.45966" lon="5.96751">
        <ele>688</ele>
        <time>2014-05-25T07:37:46Z</time>
      </trkpt>
      <trkpt lat="45.45949" lon="5.96745">
        <ele>692</ele>
        <time>2014-05-25T07:38:00Z</time>
      </trkpt>
      <trkpt lat="45.4593" lon="5.9674">
        <ele>694</ele>
        <time>2014-05-25T07:38:16Z</time>
      </trkpt>
      <trkpt lat="45.45917" lon="5.96722">
        <ele>693</ele>
        <time>2014-05-25T07:38:29Z</time>
      </trkpt>
      <trkpt lat="45.45909" lon="5.96699">
        <ele>693</ele>
        <time>2014-05-25T07:38:39Z</time>
      </trkpt>
      <trkpt lat="45.45904" lon="5.9667">
        <ele>694</ele>
        <time>2014-05-25T07:38:48Z</time>
      </trkpt>
      <trkpt lat="45.45894" lon="5.96644">
        <ele>694</ele>
        <time>2014-05-25T07:38:54Z</time>
      </trkpt>
      <trkpt lat="45.45889" lon="5.96618">
        <ele>694</ele>
        <time>2014-05-25T07:39:08Z</time>
      </trkpt>
      <trkpt lat="45.45872" lon="5.96605">
        <ele>694</ele>
        <time>2014-05-25T07:39:51Z</time>
      </trkpt>
      <trkpt lat="45.45856" lon="5.96593">
        <ele>692</ele>
        <time>2014-05-25T07:40:04Z</time>
      </trkpt>
      <trkpt lat="45.45837" lon="5.96582">
        <ele>691</ele>
        <time>2014-05-25T07:40:17Z</time>
      </trkpt>
      <trkpt lat="45.45821" lon="5.96565">
        <ele>682</ele>
        <time>2014-05-25T07:40:21Z</time>
      </trkpt>
      <trkpt lat="45.45812" lon="5.9654">
        <ele>680</ele>
        <time>2014-05-25T07:40:25Z</time>
      </trkpt>
      <trkpt lat="45.45809" lon="5.9651">
        <ele>682</ele>
        <time>2014-05-25T07:40:30Z</time>
      </trkpt>
      <trkpt lat="45.45812" lon="5.9648">
        <ele>685</ele>
        <time>2014-05-25T07:40:35Z</time>
      </trkpt>
      <trkpt lat="45.45808" lon="5.96454">
        <ele>685</ele>
        <time>2014-05-25T07:40:39Z</time>
      </trkpt>
      <trkpt lat="45.45795" lon="5.9643">
        <ele>684</ele>
        <time>2014-05-25T07:40:44Z</time>
      </trkpt>
      <trkpt lat="45.45792" lon="5.96404">
        <ele>687</ele>
        <time>2014-05-25T07:40:48Z</time>
      </trkpt>
      <trkpt lat="45.45782" lon="5.96377">
        <ele>687</ele>
        <time>2014-05-25T07:40:52Z</time>
      </trkpt>
      <trkpt lat="45.45775" lon="5.9635">
        <ele>685</ele>
        <time>2014-05-25T07:40:56Z</time>
      </trkpt>
      <trkpt lat="45.45774" lon="5.96323">
        <ele>690</ele>
        <time>2014-05-25T07:41:03Z</time>
      </trkpt>
      <trkpt lat="45.45768" lon="5.96292">
        <ele>693</ele>
        <time>2014-05-25T07:41:11Z</time>
      </trkpt>
      <trkpt lat="45.45756" lon="5.96273">
        <ele>693</ele>
        <time>2014-05-25T07:41:14Z</time>
      </trkpt>
      <trkpt lat="45.45743" lon="5.96247">
        <ele>686</ele>
        <time>2014-05-25T07:41:17Z</time>
      </trkpt>
      <trkpt lat="45.45734" lon="5.96218">
        <ele>680</ele>
        <time>2014-05-25T07:41:20Z</time>
      </trkpt>
      <trkpt lat="45.45727" lon="5.96193">
        <ele>681</ele>
        <time>2014-05-25T07:41:24Z</time>
      </trkpt>
      <trkpt lat="45.45716" lon="5.96168">
        <ele>680</ele>
        <time>2014-05-25T07:41:27Z</time>
      </trkpt>
      <trkpt lat="45.45698" lon="5.96164">
        <ele>681</ele>
        <time>2014-05-25T07:41:36Z</time>
      </trkpt>
      <trkpt lat="45.45686" lon="5.96139">
        <ele>681</ele>
        <time>2014-05-25T07:41:38Z</time>
      </trkpt>
      <trkpt lat="45.45676" lon="5.96111">
        <ele>682</ele>
        <time>2014-05-25T07:41:42Z</time>
      </trkpt>
      <trkpt lat="45.45671" lon="5.96083">
        <ele>681</ele>
        <time>2014-05-25T07:41:53Z</time>
      </trkpt>
      <trkpt lat="45.45667" lon="5.96057">
        <ele>691</ele>
        <time>2014-05-25T07:42:00Z</time>
      </trkpt>
      <trkpt lat="45.45651" lon="5.96033">
        <ele>687</ele>
        <time>2014-05-25T07:42:05Z</time>
      </trkpt>
      <trkpt lat="45.45625" lon="5.96022">
        <ele>688</ele>
        <time>2014-05-25T07:42:08Z</time>
      </trkpt>
      <trkpt lat="45.45608" lon="5.96013">
        <ele>689</ele>
        <time>2014-05-25T07:42:11Z</time>
      </trkpt>
      <trkpt lat="45.45598" lon="5.96034">
        <ele>687</ele>
        <time>2014-05-25T07:42:29Z</time>
      </trkpt>
      <trkpt lat="45.45601" lon="5.96061">
        <ele>684</ele>
        <time>2014-05-25T07:42:41Z</time>
      </trkpt>
      <trkpt lat="45.45588" lon="5.96082">
        <ele>681</ele>
        <time>2014-05-25T07:42:52Z</time>
      </trkpt>
      <trkpt lat="45.4557" lon="5.96091">
        <ele>685</ele>
        <time>2014-05-25T07:43:03Z</time>
      </trkpt>
      <trkpt lat="45.45552" lon="5.96098">
        <ele>689</ele>
        <time>2014-05-25T07:43:11Z</time>
      </trkpt>
      <trkpt lat="45.45541" lon="5.96118">
        <ele>690</ele>
        <time>2014-05-25T07:43:25Z</time>
      </trkpt>
      <trkpt lat="45.45525" lon="5.96131">
        <ele>693</ele>
        <time>2014-05-25T07:43:37Z</time>
      </trkpt>
      <trkpt lat="45.45506" lon="5.96141">
        <ele>696</ele>
        <time>2014-05-25T07:43:52Z</time>
      </trkpt>
      <trkpt lat="45.45504" lon="5.96167">
        <ele>702</ele>
        <time>2014-05-25T07:44:10Z</time>
      </trkpt>
      <trkpt lat="45.45509" lon="5.96192">
        <ele>686</ele>
        <time>2014-05-25T07:44:32Z</time>
      </trkpt>
      <trkpt lat="45.45499" lon="5.96216">
        <ele>711</ele>
        <time>2014-05-25T07:44:38Z</time>
      </trkpt>
      <trkpt lat="45.45489" lon="5.96238">
        <ele>707</ele>
        <time>2014-05-25T07:44:53Z</time>
      </trkpt>
      <trkpt lat="45.45474" lon="5.96253">
        <ele>703</ele>
        <time>2014-05-25T07:45:05Z</time>
      </trkpt>
      <trkpt lat="45.45462" lon="5.96273">
        <ele>706</ele>
        <time>2014-05-25T07:45:16Z</time>
      </trkpt>
      <trkpt lat="45.45448" lon="5.9629">
        <ele>707</ele>
        <time>2014-05-25T07:45:31Z</time>
      </trkpt>
      <trkpt lat="45.45433" lon="5.96305">
        <ele>709</ele>
        <time>2014-05-25T07:45:46Z</time>
      </trkpt>
      <trkpt lat="45.45421" lon="5.96327">
        <ele>712</ele>
        <time>2014-05-25T07:46:12Z</time>
      </trkpt>
      <trkpt lat="45.45408" lon="5.96346">
        <ele>723</ele>
        <time>2014-05-25T07:46:17Z</time>
      </trkpt>
      <trkpt lat="45.45394" lon="5.96363">
        <ele>729</ele>
        <time>2014-05-25T07:46:31Z</time>
      </trkpt>
      <trkpt lat="45.45381" lon="5.96381">
        <ele>732</ele>
        <time>2014-05-25T07:46:43Z</time>
      </trkpt>
      <trkpt lat="45.45384" lon="5.96407">
        <ele>729</ele>
        <time>2014-05-25T07:46:53Z</time>
      </trkpt>
      <trkpt lat="45.45395" lon="5.96428">
        <ele>724</ele>
        <time>2014-05-25T07:47:03Z</time>
      </trkpt>
      <trkpt lat="45.45407" lon="5.96448">
        <ele>724</ele>
        <time>2014-05-25T07:47:13Z</time>
      </trkpt>
      <trkpt lat="45.45411" lon="5.96474">
        <ele>724</ele>
        <time>2014-05-25T07:47:25Z</time>
      </trkpt>
      <trkpt lat="45.45414" lon="5.965">
        <ele>720</ele>
        <time>2014-05-25T07:47:38Z</time>
      </trkpt>
      <trkpt lat="45.45419" lon="5.96526">
        <ele>708</ele>
        <time>2014-05-25T07:47:53Z</time>
      </trkpt>
      <trkpt lat="45.45405" lon="5.96543">
        <ele>726</ele>
        <time>2014-05-25T07:48:12Z</time>
      </trkpt>
      <trkpt lat="45.45387" lon="5.96551">
        <ele>727</ele>
        <time>2014-05-25T07:48:24Z</time>
      </trkpt>
      <trkpt lat="45.45372" lon="5.96564">
        <ele>729</ele>
        <time>2014-05-25T07:48:33Z</time>
      </trkpt>
      <trkpt lat="45.45354" lon="5.96571">
        <ele>731</ele>
        <time>2014-05-25T07:48:47Z</time>
      </trkpt>
      <trkpt lat="45.45335" lon="5.96574">
        <ele>734</ele>
        <time>2014-05-25T07:49:25Z</time>
      </trkpt>
      <trkpt lat="45.45316" lon="5.96574">
        <ele>741</ele>
        <time>2014-05-25T07:49:51Z</time>
      </trkpt>
      <trkpt lat="45.45299" lon="5.96578">
        <ele>744</ele>
        <time>2014-05-25T07:50:06Z</time>
      </trkpt>
      <trkpt lat="45.4528" lon="5.96581">
        <ele>746</ele>
        <time>2014-05-25T07:50:21Z</time>
      </trkpt>
      <trkpt lat="45.45261" lon="5.96584">
        <ele>747</ele>
        <time>2014-05-25T07:50:39Z</time>
      </trkpt>
      <trkpt lat="45.45242" lon="5.96587">
        <ele>750</ele>
        <time>2014-05-25T07:50:56Z</time>
      </trkpt>
      <trkpt lat="45.45223" lon="5.96591">
        <ele>751</ele>
        <time>2014-05-25T07:51:09Z</time>
      </trkpt>
      <trkpt lat="45.45205" lon="5.96586">
        <ele>752</ele>
        <time>2014-05-25T07:51:28Z</time>
      </trkpt>
      <trkpt lat="45.45187" lon="5.96585">
        <ele>754</ele>
        <time>2014-05-25T07:51:46Z</time>
      </trkpt>
      <trkpt lat="45.45169" lon="5.96575">
        <ele>760</ele>
        <time>2014-05-25T07:52:05Z</time>
      </trkpt>
      <trkpt lat="45.45161" lon="5.96552">
        <ele>763</ele>
        <time>2014-05-25T07:52:22Z</time>
      </trkpt>
      <trkpt lat="45.4515" lon="5.96528">
        <ele>765</ele>
        <time>2014-05-25T07:52:43Z</time>
      </trkpt>
      <trkpt lat="45.45143" lon="5.96503">
        <ele>766</ele>
        <time>2014-05-25T07:52:55Z</time>
      </trkpt>
      <trkpt lat="45.45126" lon="5.96493">
        <ele>774</ele>
        <time>2014-05-25T07:53:08Z</time>
      </trkpt>
      <trkpt lat="45.45109" lon="5.96483">
        <ele>773</ele>
        <time>2014-05-25T07:53:18Z</time>
      </trkpt>
      <trkpt lat="45.45095" lon="5.96466">
        <ele>775</ele>
        <time>2014-05-25T07:53:29Z</time>
      </trkpt>
      <trkpt lat="45.4508" lon="5.96446">
        <ele>780</ele>
        <time>2014-05-25T07:53:35Z</time>
      </trkpt>
      <trkpt lat="45.45064" lon="5.96431">
        <ele>781</ele>
        <time>2014-05-25T07:53:41Z</time>
      </trkpt>
      <trkpt lat="45.45046" lon="5.96426">
        <ele>782</ele>
        <time>2014-05-25T07:53:48Z</time>
      </trkpt>
      <trkpt lat="45.45028" lon="5.96436">
        <ele>783</ele>
        <time>2014-05-25T07:54:07Z</time>
      </trkpt>
      <trkpt lat="45.4502" lon="5.9646">
        <ele>782</ele>
        <time>2014-05-25T07:54:22Z</time>
      </trkpt>
      <trkpt lat="45.45016" lon="5.96486">
        <ele>781</ele>
        <time>2014-05-25T07:54:36Z</time>
      </trkpt>
      <trkpt lat="45.45012" lon="5.96515">
        <ele>776</ele>
        <time>2014-05-25T07:54:50Z</time>
      </trkpt>
      <trkpt lat="45.45004" lon="5.96541">
        <ele>773</ele>
        <time>2014-05-25T07:55:21Z</time>
      </trkpt>
      <trkpt lat="45.44998" lon="5.96567">
        <ele>784</ele>
        <time>2014-05-25T07:55:28Z</time>
      </trkpt>
      <trkpt lat="45.44992" lon="5.96591">
        <ele>781</ele>
        <time>2014-05-25T07:55:43Z</time>
      </trkpt>
      <trkpt lat="45.44981" lon="5.96613">
        <ele>785</ele>
        <time>2014-05-25T07:55:53Z</time>
      </trkpt>
      <trkpt lat="45.44968" lon="5.96632">
        <ele>787</ele>
        <time>2014-05-25T07:56:05Z</time>
      </trkpt>
      <trkpt lat="45.44958" lon="5.96654">
        <ele>788</ele>
        <time>2014-05-25T07:56:20Z</time>
      </trkpt>
      <trkpt lat="45.44947" lon="5.96675">
        <ele>785</ele>
        <time>2014-05-25T07:56:54Z</time>
      </trkpt>
      <trkpt lat="45.44934" lon="5.96695">
        <ele>785</ele>
        <time>2014-05-25T07:57:51Z</time>
      </trkpt>
      <trkpt lat="45.44919" lon="5.96711">
        <ele>785</ele>
        <time>2014-05-25T07:58:11Z</time>
      </trkpt>
      <trkpt lat="45.44903" lon="5.96724">
        <ele>804</ele>
        <time>2014-05-25T07:58:31Z</time>
      </trkpt>
      <trkpt lat="45.44884" lon="5.96728">
        <ele>806</ele>
        <time>2014-05-25T07:58:52Z</time>
      </trkpt>
      <trkpt lat="45.44866" lon="5.96734">
        <ele>809</ele>
        <time>2014-05-25T07:59:10Z</time>
      </trkpt>
      <trkpt lat="45.4485" lon="5.96748">
        <ele>812</ele>
        <time>2014-05-25T07:59:25Z</time>
      </trkpt>
      <trkpt lat="45.44841" lon="5.9677">
        <ele>803</ele>
        <time>2014-05-25T08:01:07Z</time>
      </trkpt>
      <trkpt lat="45.44831" lon="5.96792">
        <ele>809</ele>
        <time>2014-05-25T08:01:17Z</time>
      </trkpt>
      <trkpt lat="45.44816" lon="5.96812">
        <ele>805</ele>
        <time>2014-05-25T08:01:23Z</time>
      </trkpt>
      <trkpt lat="45.448" lon="5.96828">
        <ele>805</ele>
        <time>2014-05-25T08:01:30Z</time>
      </trkpt>
      <trkpt lat="45.44783" lon="5.96837">
        <ele>789</ele>
        <time>2014-05-25T08:01:35Z</time>
      </trkpt>
      <trkpt lat="45.44764" lon="5.96838">
        <ele>793</ele>
        <time>2014-05-25T08:01:39Z</time>
      </trkpt>
      <trkpt lat="45.44747" lon="5.96856">
        <ele>792</ele>
        <time>2014-05-25T08:01:43Z</time>
      </trkpt>
      <trkpt lat="45.44732" lon="5.96877">
        <ele>786</ele>
        <time>2014-05-25T08:01:48Z</time>
      </trkpt>
      <trkpt lat="45.44717" lon="5.96894">
        <ele>782</ele>
        <time>2014-05-25T08:01:54Z</time>
      </trkpt>
      <trkpt lat="45.44713" lon="5.96921">
        <ele>756</ele>
        <time>2014-05-25T08:02:05Z</time>
      </trkpt>
      <trkpt lat="45.44698" lon="5.96938">
        <ele>753</ele>
        <time>2014-05-25T08:02:12Z</time>
      </trkpt>
      <trkpt lat="45.44679" lon="5.96951">
        <ele>750</ele>
        <time>2014-05-25T08:02:17Z</time>
      </trkpt>
      <trkpt lat="45.4466" lon="5.96952">
        <ele>748</ele>
        <time>2014-05-25T08:02:21Z</time>
      </trkpt>
      <trkpt lat="45.44641" lon="5.96953">
        <ele>746</ele>
        <time>2014-05-25T08:02:25Z</time>
      </trkpt>
      <trkpt lat="45.44622" lon="5.96952">
        <ele>746</ele>
        <time>2014-05-25T08:02:28Z</time>
      </trkpt>
      <trkpt lat="45.44601" lon="5.96951">
        <ele>747</ele>
        <time>2014-05-25T08:02:31Z</time>
      </trkpt>
      <trkpt lat="45.44582" lon="5.96956">
        <ele>738</ele>
        <time>2014-05-25T08:02:34Z</time>
      </trkpt>
      <trkpt lat="45.44558" lon="5.96961">
        <ele>735</ele>
        <time>2014-05-25T08:02:38Z</time>
      </trkpt>
      <trkpt lat="45.4454" lon="5.96959">
        <ele>733</ele>
        <time>2014-05-25T08:02:42Z</time>
      </trkpt>
      <trkpt lat="45.44517" lon="5.96944">
        <ele>736</ele>
        <time>2014-05-25T08:02:51Z</time>
      </trkpt>
      <trkpt lat="45.44496" lon="5.96932">
        <ele>729</ele>
        <time>2014-05-25T08:02:55Z</time>
      </trkpt>
      <trkpt lat="45.44478" lon="5.96926">
        <ele>724</ele>
        <time>2014-05-25T08:02:59Z</time>
      </trkpt>
      <trkpt lat="45.44458" lon="5.96926">
        <ele>716</ele>
        <time>2014-05-25T08:03:04Z</time>
      </trkpt>
      <trkpt lat="45.44437" lon="5.96926">
        <ele>712</ele>
        <time>2014-05-25T08:03:11Z</time>
      </trkpt>
      <trkpt lat="45.44419" lon="5.9693">
        <ele>711</ele>
        <time>2014-05-25T08:03:17Z</time>
      </trkpt>
      <trkpt lat="45.44396" lon="5.96926">
        <ele>687</ele>
        <time>2014-05-25T08:03:22Z</time>
      </trkpt>
      <trkpt lat="45.44378" lon="5.96911">
        <ele>694</ele>
        <time>2014-05-25T08:03:28Z</time>
      </trkpt>
      <trkpt lat="45.4436" lon="5.96908">
        <ele>685</ele>
        <time>2014-05-25T08:03:35Z</time>
      </trkpt>
      <trkpt lat="45.44352" lon="5.96935">
        <ele>667</ele>
        <time>2014-05-25T08:03:45Z</time>
      </trkpt>
      <trkpt lat="45.44343" lon="5.96964">
        <ele>662</ele>
        <time>2014-05-25T08:03:49Z</time>
      </trkpt>
      <trkpt lat="45.44333" lon="5.96986">
        <ele>630</ele>
        <time>2014-05-25T08:03:53Z</time>
      </trkpt>
      <trkpt lat="45.44332" lon="5.97013">
        <ele>620</ele>
        <time>2014-05-25T08:03:59Z</time>
      </trkpt>
      <trkpt lat="45.44344" lon="5.97032">
        <ele>638</ele>
        <time>2014-05-25T08:04:03Z</time>
      </trkpt>
      <trkpt lat="45.44353" lon="5.9706">
        <ele>633</ele>
        <time>2014-05-25T08:04:07Z</time>
      </trkpt>
      <trkpt lat="45.44366" lon="5.97086">
        <ele>615</ele>
        <time>2014-05-25T08:04:11Z</time>
      </trkpt>
      <trkpt lat="45.44379" lon="5.97107">
        <ele>615</ele>
        <time>2014-05-25T08:04:16Z</time>
      </trkpt>
      <trkpt lat="45.44382" lon="5.97134">
        <ele>610</ele>
        <time>2014-05-25T08:04:22Z</time>
      </trkpt>
      <trkpt lat="45.44369" lon="5.97155">
        <ele>604</ele>
        <time>2014-05-25T08:04:28Z</time>
      </trkpt>
      <trkpt lat="45.44355" lon="5.97177">
        <ele>582</ele>
        <time>2014-05-25T08:04:36Z</time>
      </trkpt>
      <trkpt lat="45.44335" lon="5.97179">
        <ele>582</ele>
        <time>2014-05-25T08:04:42Z</time>
      </trkpt>
      <trkpt lat="45.44316" lon="5.97186">
        <ele>555</ele>
        <time>2014-05-25T08:04:49Z</time>
      </trkpt>
      <trkpt lat="45.44294" lon="5.97193">
        <ele>543</ele>
        <time>2014-05-25T08:05:07Z</time>
      </trkpt>
      <trkpt lat="45.44309" lon="5.97216">
        <ele>544</ele>
        <time>2014-05-25T08:06:32Z</time>
      </trkpt>
      <trkpt lat="45.44322" lon="5.97239">
        <ele>549</ele>
        <time>2014-05-25T08:06:37Z</time>
      </trkpt>
      <trkpt lat="45.44336" lon="5.97259">
        <ele>553</ele>
        <time>2014-05-25T08:06:42Z</time>
      </trkpt>
      <trkpt lat="45.44346" lon="5.97281">
        <ele>546</ele>
        <time>2014-05-25T08:06:49Z</time>
      </trkpt>
      <trkpt lat="45.44362" lon="5.97302">
        <ele>541</ele>
        <time>2014-05-25T08:06:56Z</time>
      </trkpt>
      <trkpt lat="45.44384" lon="5.97311">
        <ele>540</ele>
        <time>2014-05-25T08:07:00Z</time>
      </trkpt>
      <trkpt lat="45.44399" lon="5.97328">
        <ele>535</ele>
        <time>2014-05-25T08:07:05Z</time>
      </trkpt>
      <trkpt lat="45.44415" lon="5.97342">
        <ele>522</ele>
        <time>2014-05-25T08:07:09Z</time>
      </trkpt>
      <trkpt lat="45.44434" lon="5.97356">
        <ele>517</ele>
        <time>2014-05-25T08:07:16Z</time>
      </trkpt>
      <trkpt lat="45.44439" lon="5.97382">
        <ele>511</ele>
        <time>2014-05-25T08:07:24Z</time>
      </trkpt>
      <trkpt lat="45.44427" lon="5.97407">
        <ele>501</ele>
        <time>2014-05-25T08:07:30Z</time>
      </trkpt>
      <trkpt lat="45.44414" lon="5.97426">
        <ele>487</ele>
        <time>2014-05-25T08:07:34Z</time>
      </trkpt>
      <trkpt lat="45.44399" lon="5.97447">
        <ele>478</ele>
        <time>2014-05-25T08:07:39Z</time>
      </trkpt>
      <trkpt lat="45.44385" lon="5.97468">
        <ele>474</ele>
        <time>2014-05-25T08:07:44Z</time>
      </trkpt>
      <trkpt lat="45.44369" lon="5.97488">
        <ele>470</ele>
        <time>2014-05-25T08:07:48Z</time>
      </trkpt>
      <trkpt lat="45.44351" lon="5.97497">
        <ele>465</ele>
        <time>2014-05-25T08:07:52Z</time>
      </trkpt>
      <trkpt lat="45.44335" lon="5.97509">
        <ele>453</ele>
        <time>2014-05-25T08:07:56Z</time>
      </trkpt>
      <trkpt lat="45.44321" lon="5.97536">
        <ele>444</ele>
        <time>2014-05-25T08:08:00Z</time>
      </trkpt>
      <trkpt lat="45.44302" lon="5.97544">
        <ele>442</ele>
        <time>2014-05-25T08:08:03Z</time>
      </trkpt>
      <trkpt lat="45.4428" lon="5.97547">
        <ele>440</ele>
        <time>2014-05-25T08:08:06Z</time>
      </trkpt>
      <trkpt lat="45.44259" lon="5.97548">
        <ele>439</ele>
        <time>2014-05-25T08:08:09Z</time>
      </trkpt>
      <trkpt lat="45.44238" lon="5.97551">
        <ele>431</ele>
        <time>2014-05-25T08:08:11Z</time>
      </trkpt>
      <trkpt lat="45.44215" lon="5.97551">
        <ele>430</ele>
        <time>2014-05-25T08:08:13Z</time>
      </trkpt>
      <trkpt lat="45.44191" lon="5.97553">
        <ele>428</ele>
        <time>2014-05-25T08:08:15Z</time>
      </trkpt>
      <trkpt lat="45.44168" lon="5.97552">
        <ele>427</ele>
        <time>2014-05-25T08:08:17Z</time>
      </trkpt>
      <trkpt lat="45.44145" lon="5.97554">
        <ele>416</ele>
        <time>2014-05-25T08:08:19Z</time>
      </trkpt>
      <trkpt lat="45.4412" lon="5.97558">
        <ele>413</ele>
        <time>2014-05-25T08:08:21Z</time>
      </trkpt>
      <trkpt lat="45.44097" lon="5.97561">
        <ele>410</ele>
        <time>2014-05-25T08:08:23Z</time>
      </trkpt>
      <trkpt lat="45.44071" lon="5.97567">
        <ele>405</ele>
        <time>2014-05-25T08:08:26Z</time>
      </trkpt>
      <trkpt lat="45.44051" lon="5.97578">
        <ele>405</ele>
        <time>2014-05-25T08:08:28Z</time>
      </trkpt>
      <trkpt lat="45.44031" lon="5.97593">
        <ele>397</ele>
        <time>2014-05-25T08:08:30Z</time>
      </trkpt>
      <trkpt lat="45.44012" lon="5.97607">
        <ele>396</ele>
        <time>2014-05-25T08:08:32Z</time>
      </trkpt>
      <trkpt lat="45.43993" lon="5.9762">
        <ele>395</ele>
        <time>2014-05-25T08:08:35Z</time>
      </trkpt>
      <trkpt lat="45.43981" lon="5.97647">
        <ele>392</ele>
        <time>2014-05-25T08:08:38Z</time>
      </trkpt>
      <trkpt lat="45.43961" lon="5.97662">
        <ele>391</ele>
        <time>2014-05-25T08:08:41Z</time>
      </trkpt>
      <trkpt lat="45.43935" lon="5.97671">
        <ele>384</ele>
        <time>2014-05-25T08:08:44Z</time>
      </trkpt>
      <trkpt lat="45.43909" lon="5.97681">
        <ele>381</ele>
        <time>2014-05-25T08:08:47Z</time>
      </trkpt>
      <trkpt lat="45.43888" lon="5.97689">
        <ele>379</ele>
        <time>2014-05-25T08:08:49Z</time>
      </trkpt>
      <trkpt lat="45.43864" lon="5.97697">
        <ele>378</ele>
        <time>2014-05-25T08:08:51Z</time>
      </trkpt>
      <trkpt lat="45.43839" lon="5.97705">
        <ele>377</ele>
        <time>2014-05-25T08:08:53Z</time>
      </trkpt>
      <trkpt lat="45.43814" lon="5.97714">
        <ele>373</ele>
        <time>2014-05-25T08:08:55Z</time>
      </trkpt>
      <trkpt lat="45.43792" lon="5.97725">
        <ele>372</ele>
        <time>2014-05-25T08:08:57Z</time>
      </trkpt>
      <trkpt lat="45.43773" lon="5.97733">
        <ele>371</ele>
        <time>2014-05-25T08:08:59Z</time>
      </trkpt>
      <trkpt lat="45.43751" lon="5.97741">
        <ele>369</ele>
        <time>2014-05-25T08:09:02Z</time>
      </trkpt>
      <trkpt lat="45.43728" lon="5.97745">
        <ele>366</ele>
        <time>2014-05-25T08:09:05Z</time>
      </trkpt>
      <trkpt lat="45.43708" lon="5.97747">
        <ele>365</ele>
        <time>2014-05-25T08:09:08Z</time>
      </trkpt>
      <trkpt lat="45.43689" lon="5.97757">
        <ele>362</ele>
        <time>2014-05-25T08:09:11Z</time>
      </trkpt>
      <trkpt lat="45.43669" lon="5.97773">
        <ele>362</ele>
        <time>2014-05-25T08:09:14Z</time>
      </trkpt>
      <trkpt lat="45.43651" lon="5.97784">
        <ele>360</ele>
        <time>2014-05-25T08:09:17Z</time>
      </trkpt>
      <trkpt lat="45.4364" lon="5.97809">
        <ele>360</ele>
        <time>2014-05-25T08:09:20Z</time>
      </trkpt>
      <trkpt lat="45.4363" lon="5.97834">
        <ele>358</ele>
        <time>2014-05-25T08:09:26Z</time>
      </trkpt>
      <trkpt lat="45.4361" lon="5.97834">
        <ele>358</ele>
        <time>2014-05-25T08:09:46Z</time>
      </trkpt>
      <trkpt lat="45.43589" lon="5.97833">
        <ele>359</ele>
        <time>2014-05-25T08:09:53Z</time>
      </trkpt>
      <trkpt lat="45.43571" lon="5.97834">
        <ele>358</ele>
        <time>2014-05-25T08:09:58Z</time>
      </trkpt>
      <trkpt lat="45.43551" lon="5.97833">
        <ele>359</ele>
        <time>2014-05-25T08:10:03Z</time>
      </trkpt>
      <trkpt lat="45.43532" lon="5.97829">
        <ele>359</ele>
        <time>2014-05-25T08:10:07Z</time>
      </trkpt>
      <trkpt lat="45.43512" lon="5.97837">
        <ele>357</ele>
        <time>2014-05-25T08:10:11Z</time>
      </trkpt>
      <trkpt lat="45.43492" lon="5.97839">
        <ele>358</ele>
        <time>2014-05-25T08:10:15Z</time>
      </trkpt>
      <trkpt lat="45.43474" lon="5.9784">
        <ele>357</ele>
        <time>2014-05-25T08:10:21Z</time>
      </trkpt>
      <trkpt lat="45.43462" lon="5.97868">
        <ele>357</ele>
        <time>2014-05-25T08:10:27Z</time>
      </trkpt>
      <trkpt lat="45.43457" lon="5.97896">
        <ele>356</ele>
        <time>2014-05-25T08:10:31Z</time>
      </trkpt>
      <trkpt lat="45.43454" lon="5.97922">
        <ele>353</ele>
        <time>2014-05-25T08:10:34Z</time>
      </trkpt>
      <trkpt lat="45.43448" lon="5.97957">
        <ele>352</ele>
        <time>2014-05-25T08:10:37Z</time>
      </trkpt>
      <trkpt lat="45.43442" lon="5.97982">
        <ele>351</ele>
        <time>2014-05-25T08:10:39Z</time>
      </trkpt>
      <trkpt lat="45.43435" lon="5.98008">
        <ele>349</ele>
        <time>2014-05-25T08:10:41Z</time>
      </trkpt>
      <trkpt lat="45.43428" lon="5.98033">
        <ele>348</ele>
        <time>2014-05-25T08:10:43Z</time>
      </trkpt>
      <trkpt lat="45.43419" lon="5.98068">
        <ele>347</ele>
        <time>2014-05-25T08:10:46Z</time>
      </trkpt>
      <trkpt lat="45.4341" lon="5.98094">
        <ele>345</ele>
        <time>2014-05-25T08:10:50Z</time>
      </trkpt>
      <trkpt lat="45.43393" lon="5.98103">
        <ele>343</ele>
        <time>2014-05-25T08:10:57Z</time>
      </trkpt>
      <trkpt lat="45.43374" lon="5.9809">
        <ele>343</ele>
        <time>2014-05-25T08:11:06Z</time>
      </trkpt>
      <trkpt lat="45.43354" lon="5.9808">
        <ele>343</ele>
        <time>2014-05-25T08:11:12Z</time>
      </trkpt>
      <trkpt lat="45.43335" lon="5.9807">
        <ele>343</ele>
        <time>2014-05-25T08:11:17Z</time>
      </trkpt>
      <trkpt lat="45.43315" lon="5.98063">
        <ele>341</ele>
        <time>2014-05-25T08:11:22Z</time>
      </trkpt>
      <trkpt lat="45.43295" lon="5.98057">
        <ele>341</ele>
        <time>2014-05-25T08:11:27Z</time>
      </trkpt>
      <trkpt lat="45.43279" lon="5.98078">
        <ele>340</ele>
        <time>2014-05-25T08:11:32Z</time>
      </trkpt>
      <trkpt lat="45.43269" lon="5.981">
        <ele>338</ele>
        <time>2014-05-25T08:11:37Z</time>
      </trkpt>
      <trkpt lat="45.43254" lon="5.98121">
        <ele>338</ele>
        <time>2014-05-25T08:11:41Z</time>
      </trkpt>
      <trkpt lat="45.43235" lon="5.98135">
        <ele>335</ele>
        <time>2014-05-25T08:11:45Z</time>
      </trkpt>
      <trkpt lat="45.43215" lon="5.98144">
        <ele>335</ele>
        <time>2014-05-25T08:11:49Z</time>
      </trkpt>
      <trkpt lat="45.43193" lon="5.98148">
        <ele>334</ele>
        <time>2014-05-25T08:11:53Z</time>
      </trkpt>
      <trkpt lat="45.43174" lon="5.98154">
        <ele>333</ele>
        <time>2014-05-25T08:11:57Z</time>
      </trkpt>
      <trkpt lat="45.43156" lon="5.98146">
        <ele>332</ele>
        <time>2014-05-25T08:12:01Z</time>
      </trkpt>
      <trkpt lat="45.43137" lon="5.98141">
        <ele>332</ele>
        <time>2014-05-25T08:12:08Z</time>
      </trkpt>
      <trkpt lat="45.43115" lon="5.98149">
        <ele>332</ele>
        <time>2014-05-25T08:12:14Z</time>
      </trkpt>
      <trkpt lat="45.43095" lon="5.9815">
        <ele>332</ele>
        <time>2014-05-25T08:12:18Z</time>
      </trkpt>
      <trkpt lat="45.43075" lon="5.98151">
        <ele>331</ele>
        <time>2014-05-25T08:12:22Z</time>
      </trkpt>
      <trkpt lat="45.43052" lon="5.98154">
        <ele>331</ele>
        <time>2014-05-25T08:12:26Z</time>
      </trkpt>
      <trkpt lat="45.43033" lon="5.98162">
        <ele>330</ele>
        <time>2014-05-25T08:12:30Z</time>
      </trkpt>
      <trkpt lat="45.43018" lon="5.98185">
        <ele>329</ele>
        <time>2014-05-25T08:12:34Z</time>
      </trkpt>
      <trkpt lat="45.43001" lon="5.98214">
        <ele>329</ele>
        <time>2014-05-25T08:12:41Z</time>
      </trkpt>
      <trkpt lat="45.42985" lon="5.98238">
        <ele>329</ele>
        <time>2014-05-25T08:12:45Z</time>
      </trkpt>
      <trkpt lat="45.42971" lon="5.98256">
        <ele>330</ele>
        <time>2014-05-25T08:12:49Z</time>
      </trkpt>
      <trkpt lat="45.42954" lon="5.98277">
        <ele>330</ele>
        <time>2014-05-25T08:12:54Z</time>
      </trkpt>
      <trkpt lat="45.42943" lon="5.98298">
        <ele>330</ele>
        <time>2014-05-25T08:12:57Z</time>
      </trkpt>
      <trkpt lat="45.42935" lon="5.98321">
        <ele>330</ele>
        <time>2014-05-25T08:13:01Z</time>
      </trkpt>
      <trkpt lat="45.42927" lon="5.98349">
        <ele>330</ele>
        <time>2014-05-25T08:13:15Z</time>
      </trkpt>
      <trkpt lat="45.4292" lon="5.98373">
        <ele>330</ele>
        <time>2014-05-25T08:13:24Z</time>
      </trkpt>
      <trkpt lat="45.42913" lon="5.98398">
        <ele>329</ele>
        <time>2014-05-25T08:13:31Z</time>
      </trkpt>
      <trkpt lat="45.42909" lon="5.98429">
        <ele>329</ele>
        <time>2014-05-25T08:13:58Z</time>
      </trkpt>
    </trkseg>
  </trk>
</gpx>